<?xml version="1.0" encoding="UTF-8" standalone="no" ?>
<gpx xmlns="http://www.topografix.com/GPX/1/1" xmlns:xsi="http://www.w3.org/2001/XMLSchema-instance" xsi:schemaLocation="http://www.topografix.com/GPX/1/1 http://www.topografix.com/GPX/1/1/gpx.xsd" version="1.1" creator="VisuGPX - https://www.visugpx.com">
  <metadata>
    <name>Valempoulieres,essai</name>
  </metadata>
  <trk>
    <name><![CDATA[Valempoulieres,essai_1]]></name>
    <trkseg>
      <trkpt lat="46.83464" lon="5.86996">
        <ele>663.4</ele>
        <time>2020-02-09T12:40:58Z</time>
      </trkpt>
      <trkpt lat="46.83466" lon="5.87003">
        <ele>666.8</ele>
        <time>2020-02-09T12:41:14Z</time>
      </trkpt>
      <trkpt lat="46.83472" lon="5.87004">
        <ele>666.9</ele>
        <time>2020-02-09T12:41:24Z</time>
      </trkpt>
      <trkpt lat="46.83476" lon="5.87001">
        <ele>667.6</ele>
        <time>2020-02-09T12:41:31Z</time>
      </trkpt>
      <trkpt lat="46.83481" lon="5.87003">
        <ele>667.8</ele>
        <time>2020-02-09T12:41:33Z</time>
      </trkpt>
      <trkpt lat="46.83485" lon="5.87005">
        <ele>668.2</ele>
        <time>2020-02-09T12:41:36Z</time>
      </trkpt>
      <trkpt lat="46.8349" lon="5.87009">
        <ele>668.5</ele>
        <time>2020-02-09T12:41:40Z</time>
      </trkpt>
      <trkpt lat="46.83494" lon="5.87013">
        <ele>668.5</ele>
        <time>2020-02-09T12:41:43Z</time>
      </trkpt>
      <trkpt lat="46.83497" lon="5.87017">
        <ele>668.2</ele>
        <time>2020-02-09T12:41:47Z</time>
      </trkpt>
      <trkpt lat="46.83502" lon="5.8702">
        <ele>668.1</ele>
        <time>2020-02-09T12:41:54Z</time>
      </trkpt>
      <trkpt lat="46.83506" lon="5.87022">
        <ele>668.3</ele>
        <time>2020-02-09T12:42:00Z</time>
      </trkpt>
      <trkpt lat="46.83512" lon="5.87022">
        <ele>669.1</ele>
        <time>2020-02-09T12:42:07Z</time>
      </trkpt>
      <trkpt lat="46.83517" lon="5.87021">
        <ele>669.7</ele>
        <time>2020-02-09T12:42:11Z</time>
      </trkpt>
      <trkpt lat="46.83522" lon="5.8702">
        <ele>670.4</ele>
        <time>2020-02-09T12:42:16Z</time>
      </trkpt>
      <trkpt lat="46.83527" lon="5.87018">
        <ele>670.9</ele>
        <time>2020-02-09T12:42:20Z</time>
      </trkpt>
      <trkpt lat="46.83534" lon="5.87019">
        <ele>671.2</ele>
        <time>2020-02-09T12:42:24Z</time>
      </trkpt>
      <trkpt lat="46.83538" lon="5.87018">
        <ele>671.3</ele>
        <time>2020-02-09T12:42:27Z</time>
      </trkpt>
      <trkpt lat="46.83544" lon="5.87018">
        <ele>671.2</ele>
        <time>2020-02-09T12:42:30Z</time>
      </trkpt>
      <trkpt lat="46.83549" lon="5.87017">
        <ele>671.1</ele>
        <time>2020-02-09T12:42:33Z</time>
      </trkpt>
      <trkpt lat="46.83554" lon="5.87016">
        <ele>671</ele>
        <time>2020-02-09T12:42:37Z</time>
      </trkpt>
      <trkpt lat="46.83558" lon="5.87018">
        <ele>670.8</ele>
        <time>2020-02-09T12:42:41Z</time>
      </trkpt>
      <trkpt lat="46.83563" lon="5.87019">
        <ele>670.6</ele>
        <time>2020-02-09T12:42:45Z</time>
      </trkpt>
      <trkpt lat="46.83568" lon="5.87019">
        <ele>670.3</ele>
        <time>2020-02-09T12:42:49Z</time>
      </trkpt>
      <trkpt lat="46.83573" lon="5.87018">
        <ele>670</ele>
        <time>2020-02-09T12:42:54Z</time>
      </trkpt>
      <trkpt lat="46.83578" lon="5.87016">
        <ele>669.8</ele>
        <time>2020-02-09T12:42:58Z</time>
      </trkpt>
      <trkpt lat="46.83583" lon="5.87014">
        <ele>669.7</ele>
        <time>2020-02-09T12:43:03Z</time>
      </trkpt>
      <trkpt lat="46.83587" lon="5.87012">
        <ele>669.6</ele>
        <time>2020-02-09T12:43:06Z</time>
      </trkpt>
      <trkpt lat="46.83592" lon="5.8701">
        <ele>669.4</ele>
        <time>2020-02-09T12:43:10Z</time>
      </trkpt>
      <trkpt lat="46.83596" lon="5.87008">
        <ele>669.3</ele>
        <time>2020-02-09T12:43:14Z</time>
      </trkpt>
      <trkpt lat="46.83601" lon="5.87005">
        <ele>669.4</ele>
        <time>2020-02-09T12:43:19Z</time>
      </trkpt>
      <trkpt lat="46.83608" lon="5.87005">
        <ele>669.7</ele>
        <time>2020-02-09T12:44:26Z</time>
      </trkpt>
      <trkpt lat="46.83613" lon="5.87006">
        <ele>669.3</ele>
        <time>2020-02-09T12:44:31Z</time>
      </trkpt>
      <trkpt lat="46.83617" lon="5.87009">
        <ele>669.1</ele>
        <time>2020-02-09T12:44:34Z</time>
      </trkpt>
      <trkpt lat="46.83622" lon="5.87013">
        <ele>669.1</ele>
        <time>2020-02-09T12:44:36Z</time>
      </trkpt>
      <trkpt lat="46.83626" lon="5.87016">
        <ele>669.3</ele>
        <time>2020-02-09T12:44:39Z</time>
      </trkpt>
      <trkpt lat="46.83631" lon="5.87021">
        <ele>669.5</ele>
        <time>2020-02-09T12:44:43Z</time>
      </trkpt>
      <trkpt lat="46.83635" lon="5.87026">
        <ele>669.7</ele>
        <time>2020-02-09T12:44:48Z</time>
      </trkpt>
      <trkpt lat="46.83638" lon="5.87031">
        <ele>669.6</ele>
        <time>2020-02-09T12:44:53Z</time>
      </trkpt>
      <trkpt lat="46.83642" lon="5.87036">
        <ele>669.7</ele>
        <time>2020-02-09T12:44:58Z</time>
      </trkpt>
      <trkpt lat="46.83646" lon="5.87041">
        <ele>669.7</ele>
        <time>2020-02-09T12:45:03Z</time>
      </trkpt>
      <trkpt lat="46.83649" lon="5.87045">
        <ele>669.7</ele>
        <time>2020-02-09T12:45:09Z</time>
      </trkpt>
      <trkpt lat="46.83654" lon="5.87051">
        <ele>669.8</ele>
        <time>2020-02-09T12:45:16Z</time>
      </trkpt>
      <trkpt lat="46.83656" lon="5.87056">
        <ele>669.9</ele>
        <time>2020-02-09T12:45:20Z</time>
      </trkpt>
      <trkpt lat="46.8366" lon="5.87061">
        <ele>670</ele>
        <time>2020-02-09T12:45:24Z</time>
      </trkpt>
      <trkpt lat="46.83664" lon="5.87067">
        <ele>670</ele>
        <time>2020-02-09T12:45:28Z</time>
      </trkpt>
      <trkpt lat="46.83669" lon="5.8707">
        <ele>670</ele>
        <time>2020-02-09T12:45:32Z</time>
      </trkpt>
      <trkpt lat="46.83673" lon="5.87073">
        <ele>670.2</ele>
        <time>2020-02-09T12:45:35Z</time>
      </trkpt>
      <trkpt lat="46.83678" lon="5.87077">
        <ele>670.7</ele>
        <time>2020-02-09T12:45:40Z</time>
      </trkpt>
      <trkpt lat="46.83682" lon="5.87081">
        <ele>671.4</ele>
        <time>2020-02-09T12:45:46Z</time>
      </trkpt>
      <trkpt lat="46.83686" lon="5.87085">
        <ele>671.7</ele>
        <time>2020-02-09T12:45:51Z</time>
      </trkpt>
      <trkpt lat="46.8369" lon="5.87089">
        <ele>671.7</ele>
        <time>2020-02-09T12:45:55Z</time>
      </trkpt>
      <trkpt lat="46.83694" lon="5.87094">
        <ele>671.7</ele>
        <time>2020-02-09T12:46:00Z</time>
      </trkpt>
      <trkpt lat="46.83698" lon="5.87098">
        <ele>671.8</ele>
        <time>2020-02-09T12:46:05Z</time>
      </trkpt>
      <trkpt lat="46.83703" lon="5.871">
        <ele>671.7</ele>
        <time>2020-02-09T12:46:09Z</time>
      </trkpt>
      <trkpt lat="46.83707" lon="5.87106">
        <ele>671.7</ele>
        <time>2020-02-09T12:46:16Z</time>
      </trkpt>
      <trkpt lat="46.83712" lon="5.8711">
        <ele>671.7</ele>
        <time>2020-02-09T12:46:20Z</time>
      </trkpt>
      <trkpt lat="46.83716" lon="5.87115">
        <ele>671.6</ele>
        <time>2020-02-09T12:46:25Z</time>
      </trkpt>
      <trkpt lat="46.83721" lon="5.87118">
        <ele>671.3</ele>
        <time>2020-02-09T12:46:31Z</time>
      </trkpt>
      <trkpt lat="46.83725" lon="5.87122">
        <ele>671.3</ele>
        <time>2020-02-09T12:46:33Z</time>
      </trkpt>
      <trkpt lat="46.83729" lon="5.87128">
        <ele>671.3</ele>
        <time>2020-02-09T12:46:36Z</time>
      </trkpt>
      <trkpt lat="46.83732" lon="5.87134">
        <ele>671.2</ele>
        <time>2020-02-09T12:46:41Z</time>
      </trkpt>
      <trkpt lat="46.83735" lon="5.87141">
        <ele>671.1</ele>
        <time>2020-02-09T12:46:45Z</time>
      </trkpt>
      <trkpt lat="46.83738" lon="5.87146">
        <ele>671</ele>
        <time>2020-02-09T12:46:49Z</time>
      </trkpt>
      <trkpt lat="46.83742" lon="5.87151">
        <ele>670.9</ele>
        <time>2020-02-09T12:46:54Z</time>
      </trkpt>
      <trkpt lat="46.83746" lon="5.87156">
        <ele>671.1</ele>
        <time>2020-02-09T12:47:00Z</time>
      </trkpt>
      <trkpt lat="46.83751" lon="5.87161">
        <ele>671.3</ele>
        <time>2020-02-09T12:47:04Z</time>
      </trkpt>
      <trkpt lat="46.83755" lon="5.87166">
        <ele>671.5</ele>
        <time>2020-02-09T12:47:08Z</time>
      </trkpt>
      <trkpt lat="46.83759" lon="5.87171">
        <ele>671.6</ele>
        <time>2020-02-09T12:47:12Z</time>
      </trkpt>
      <trkpt lat="46.83762" lon="5.87176">
        <ele>671.7</ele>
        <time>2020-02-09T12:47:16Z</time>
      </trkpt>
      <trkpt lat="46.83766" lon="5.87181">
        <ele>672.1</ele>
        <time>2020-02-09T12:47:21Z</time>
      </trkpt>
      <trkpt lat="46.83769" lon="5.87185">
        <ele>672.5</ele>
        <time>2020-02-09T12:47:26Z</time>
      </trkpt>
      <trkpt lat="46.83773" lon="5.87189">
        <ele>672.6</ele>
        <time>2020-02-09T12:47:33Z</time>
      </trkpt>
      <trkpt lat="46.83777" lon="5.87193">
        <ele>672.4</ele>
        <time>2020-02-09T12:47:38Z</time>
      </trkpt>
      <trkpt lat="46.83781" lon="5.87197">
        <ele>672.2</ele>
        <time>2020-02-09T12:47:43Z</time>
      </trkpt>
      <trkpt lat="46.83785" lon="5.87201">
        <ele>671.9</ele>
        <time>2020-02-09T12:47:48Z</time>
      </trkpt>
      <trkpt lat="46.83789" lon="5.87205">
        <ele>671.4</ele>
        <time>2020-02-09T12:47:53Z</time>
      </trkpt>
      <trkpt lat="46.83797" lon="5.87214">
        <ele>670.2</ele>
        <time>2020-02-09T12:48:02Z</time>
      </trkpt>
      <trkpt lat="46.83801" lon="5.87218">
        <ele>670</ele>
        <time>2020-02-09T12:48:06Z</time>
      </trkpt>
      <trkpt lat="46.83806" lon="5.87221">
        <ele>669.9</ele>
        <time>2020-02-09T12:48:10Z</time>
      </trkpt>
      <trkpt lat="46.83811" lon="5.87225">
        <ele>669.6</ele>
        <time>2020-02-09T12:48:15Z</time>
      </trkpt>
      <trkpt lat="46.83815" lon="5.87232">
        <ele>669.6</ele>
        <time>2020-02-09T12:48:20Z</time>
      </trkpt>
      <trkpt lat="46.83817" lon="5.87238">
        <ele>669.6</ele>
        <time>2020-02-09T12:48:22Z</time>
      </trkpt>
      <trkpt lat="46.83821" lon="5.87245">
        <ele>669.9</ele>
        <time>2020-02-09T12:48:27Z</time>
      </trkpt>
      <trkpt lat="46.83826" lon="5.8725">
        <ele>670.2</ele>
        <time>2020-02-09T12:48:29Z</time>
      </trkpt>
      <trkpt lat="46.83829" lon="5.87255">
        <ele>670.6</ele>
        <time>2020-02-09T12:48:32Z</time>
      </trkpt>
      <trkpt lat="46.83833" lon="5.87259">
        <ele>671.2</ele>
        <time>2020-02-09T12:48:36Z</time>
      </trkpt>
      <trkpt lat="46.83837" lon="5.87263">
        <ele>671.6</ele>
        <time>2020-02-09T12:48:39Z</time>
      </trkpt>
      <trkpt lat="46.83841" lon="5.87266">
        <ele>672.7</ele>
        <time>2020-02-09T12:48:45Z</time>
      </trkpt>
      <trkpt lat="46.83842" lon="5.87274">
        <ele>673.6</ele>
        <time>2020-02-09T12:48:49Z</time>
      </trkpt>
      <trkpt lat="46.83842" lon="5.87281">
        <ele>675.1</ele>
        <time>2020-02-09T12:48:55Z</time>
      </trkpt>
      <trkpt lat="46.83845" lon="5.87287">
        <ele>676.3</ele>
        <time>2020-02-09T12:49:00Z</time>
      </trkpt>
      <trkpt lat="46.83849" lon="5.87293">
        <ele>677.3</ele>
        <time>2020-02-09T12:49:05Z</time>
      </trkpt>
      <trkpt lat="46.83853" lon="5.87297">
        <ele>678.6</ele>
        <time>2020-02-09T12:49:13Z</time>
      </trkpt>
      <trkpt lat="46.83856" lon="5.87302">
        <ele>680.1</ele>
        <time>2020-02-09T12:49:20Z</time>
      </trkpt>
      <trkpt lat="46.8386" lon="5.87308">
        <ele>681.4</ele>
        <time>2020-02-09T12:49:26Z</time>
      </trkpt>
      <trkpt lat="46.83864" lon="5.87312">
        <ele>682.7</ele>
        <time>2020-02-09T12:49:32Z</time>
      </trkpt>
      <trkpt lat="46.83868" lon="5.87316">
        <ele>683.2</ele>
        <time>2020-02-09T12:49:35Z</time>
      </trkpt>
      <trkpt lat="46.83879" lon="5.87325">
        <ele>684.4</ele>
        <time>2020-02-09T12:49:45Z</time>
      </trkpt>
      <trkpt lat="46.83884" lon="5.87329">
        <ele>684.5</ele>
        <time>2020-02-09T12:49:50Z</time>
      </trkpt>
      <trkpt lat="46.83888" lon="5.87332">
        <ele>684.4</ele>
        <time>2020-02-09T12:49:54Z</time>
      </trkpt>
      <trkpt lat="46.83893" lon="5.87336">
        <ele>684</ele>
        <time>2020-02-09T12:49:59Z</time>
      </trkpt>
      <trkpt lat="46.83898" lon="5.8734">
        <ele>683.4</ele>
        <time>2020-02-09T12:50:04Z</time>
      </trkpt>
      <trkpt lat="46.83902" lon="5.87343">
        <ele>682.8</ele>
        <time>2020-02-09T12:50:10Z</time>
      </trkpt>
      <trkpt lat="46.83907" lon="5.87344">
        <ele>682.2</ele>
        <time>2020-02-09T12:50:16Z</time>
      </trkpt>
      <trkpt lat="46.83912" lon="5.87347">
        <ele>681.9</ele>
        <time>2020-02-09T12:50:21Z</time>
      </trkpt>
      <trkpt lat="46.83916" lon="5.8735">
        <ele>681.7</ele>
        <time>2020-02-09T12:50:25Z</time>
      </trkpt>
      <trkpt lat="46.83921" lon="5.87353">
        <ele>681.5</ele>
        <time>2020-02-09T12:50:29Z</time>
      </trkpt>
      <trkpt lat="46.83925" lon="5.87356">
        <ele>681.3</ele>
        <time>2020-02-09T12:50:32Z</time>
      </trkpt>
      <trkpt lat="46.8393" lon="5.8736">
        <ele>680.9</ele>
        <time>2020-02-09T12:50:37Z</time>
      </trkpt>
      <trkpt lat="46.83931" lon="5.87366">
        <ele>679.9</ele>
        <time>2020-02-09T12:50:58Z</time>
      </trkpt>
      <trkpt lat="46.83935" lon="5.87371">
        <ele>679.7</ele>
        <time>2020-02-09T12:51:03Z</time>
      </trkpt>
      <trkpt lat="46.8394" lon="5.87373">
        <ele>679.4</ele>
        <time>2020-02-09T12:51:08Z</time>
      </trkpt>
      <trkpt lat="46.83944" lon="5.87375">
        <ele>679</ele>
        <time>2020-02-09T12:51:14Z</time>
      </trkpt>
      <trkpt lat="46.83949" lon="5.87377">
        <ele>677.9</ele>
        <time>2020-02-09T12:51:22Z</time>
      </trkpt>
      <trkpt lat="46.83956" lon="5.8738">
        <ele>677.5</ele>
        <time>2020-02-09T12:51:26Z</time>
      </trkpt>
      <trkpt lat="46.83961" lon="5.87382">
        <ele>677.2</ele>
        <time>2020-02-09T12:51:29Z</time>
      </trkpt>
      <trkpt lat="46.83965" lon="5.87384">
        <ele>676.9</ele>
        <time>2020-02-09T12:51:33Z</time>
      </trkpt>
      <trkpt lat="46.8397" lon="5.87386">
        <ele>676.8</ele>
        <time>2020-02-09T12:51:37Z</time>
      </trkpt>
      <trkpt lat="46.83975" lon="5.87387">
        <ele>676.7</ele>
        <time>2020-02-09T12:51:43Z</time>
      </trkpt>
      <trkpt lat="46.8398" lon="5.87387">
        <ele>676.7</ele>
        <time>2020-02-09T12:51:48Z</time>
      </trkpt>
      <trkpt lat="46.83985" lon="5.87387">
        <ele>676.8</ele>
        <time>2020-02-09T12:51:53Z</time>
      </trkpt>
      <trkpt lat="46.8399" lon="5.87385">
        <ele>676.7</ele>
        <time>2020-02-09T12:52:00Z</time>
      </trkpt>
      <trkpt lat="46.83995" lon="5.87385">
        <ele>676.5</ele>
        <time>2020-02-09T12:52:05Z</time>
      </trkpt>
      <trkpt lat="46.84" lon="5.87385">
        <ele>676.1</ele>
        <time>2020-02-09T12:52:11Z</time>
      </trkpt>
      <trkpt lat="46.84005" lon="5.87382">
        <ele>675.7</ele>
        <time>2020-02-09T12:52:17Z</time>
      </trkpt>
      <trkpt lat="46.84009" lon="5.87381">
        <ele>675.3</ele>
        <time>2020-02-09T12:52:23Z</time>
      </trkpt>
      <trkpt lat="46.84014" lon="5.8738">
        <ele>675.1</ele>
        <time>2020-02-09T12:52:33Z</time>
      </trkpt>
      <trkpt lat="46.84019" lon="5.87377">
        <ele>675</ele>
        <time>2020-02-09T12:52:37Z</time>
      </trkpt>
      <trkpt lat="46.84023" lon="5.87373">
        <ele>675.1</ele>
        <time>2020-02-09T12:52:42Z</time>
      </trkpt>
      <trkpt lat="46.84027" lon="5.8737">
        <ele>675.3</ele>
        <time>2020-02-09T12:52:48Z</time>
      </trkpt>
      <trkpt lat="46.84031" lon="5.87366">
        <ele>675.6</ele>
        <time>2020-02-09T12:52:53Z</time>
      </trkpt>
      <trkpt lat="46.84038" lon="5.87362">
        <ele>675.6</ele>
        <time>2020-02-09T12:52:57Z</time>
      </trkpt>
      <trkpt lat="46.84044" lon="5.87358">
        <ele>675.6</ele>
        <time>2020-02-09T12:53:00Z</time>
      </trkpt>
      <trkpt lat="46.84048" lon="5.87355">
        <ele>675.4</ele>
        <time>2020-02-09T12:53:04Z</time>
      </trkpt>
      <trkpt lat="46.84052" lon="5.87349">
        <ele>675.2</ele>
        <time>2020-02-09T12:53:10Z</time>
      </trkpt>
      <trkpt lat="46.84055" lon="5.87343">
        <ele>675.2</ele>
        <time>2020-02-09T12:53:13Z</time>
      </trkpt>
      <trkpt lat="46.8406" lon="5.87337">
        <ele>675.3</ele>
        <time>2020-02-09T12:53:16Z</time>
      </trkpt>
      <trkpt lat="46.84064" lon="5.87332">
        <ele>675.2</ele>
        <time>2020-02-09T12:53:20Z</time>
      </trkpt>
      <trkpt lat="46.84068" lon="5.87329">
        <ele>674.9</ele>
        <time>2020-02-09T12:53:24Z</time>
      </trkpt>
      <trkpt lat="46.84073" lon="5.87326">
        <ele>674.5</ele>
        <time>2020-02-09T12:53:28Z</time>
      </trkpt>
      <trkpt lat="46.84077" lon="5.87323">
        <ele>673.7</ele>
        <time>2020-02-09T12:53:33Z</time>
      </trkpt>
      <trkpt lat="46.84082" lon="5.87321">
        <ele>672.5</ele>
        <time>2020-02-09T12:53:39Z</time>
      </trkpt>
      <trkpt lat="46.84086" lon="5.87318">
        <ele>672.1</ele>
        <time>2020-02-09T12:53:42Z</time>
      </trkpt>
      <trkpt lat="46.84091" lon="5.87316">
        <ele>671.8</ele>
        <time>2020-02-09T12:53:45Z</time>
      </trkpt>
      <trkpt lat="46.84096" lon="5.87313">
        <ele>671.6</ele>
        <time>2020-02-09T12:53:49Z</time>
      </trkpt>
      <trkpt lat="46.84102" lon="5.87311">
        <ele>671.4</ele>
        <time>2020-02-09T12:53:53Z</time>
      </trkpt>
      <trkpt lat="46.84108" lon="5.87312">
        <ele>671.5</ele>
        <time>2020-02-09T12:54:00Z</time>
      </trkpt>
      <trkpt lat="46.84113" lon="5.87313">
        <ele>671.7</ele>
        <time>2020-02-09T12:54:03Z</time>
      </trkpt>
      <trkpt lat="46.84118" lon="5.87314">
        <ele>672.2</ele>
        <time>2020-02-09T12:54:06Z</time>
      </trkpt>
      <trkpt lat="46.84123" lon="5.87314">
        <ele>672.7</ele>
        <time>2020-02-09T12:54:10Z</time>
      </trkpt>
      <trkpt lat="46.84127" lon="5.87313">
        <ele>673.5</ele>
        <time>2020-02-09T12:54:15Z</time>
      </trkpt>
      <trkpt lat="46.84131" lon="5.87309">
        <ele>674.5</ele>
        <time>2020-02-09T12:54:21Z</time>
      </trkpt>
      <trkpt lat="46.84136" lon="5.87306">
        <ele>676.2</ele>
        <time>2020-02-09T12:54:28Z</time>
      </trkpt>
      <trkpt lat="46.84136" lon="5.87299">
        <ele>678.5</ele>
        <time>2020-02-09T12:54:40Z</time>
      </trkpt>
      <trkpt lat="46.84133" lon="5.87293">
        <ele>679</ele>
        <time>2020-02-09T12:54:45Z</time>
      </trkpt>
      <trkpt lat="46.84129" lon="5.8729">
        <ele>679.8</ele>
        <time>2020-02-09T12:54:53Z</time>
      </trkpt>
      <trkpt lat="46.84127" lon="5.87284">
        <ele>681.4</ele>
        <time>2020-02-09T12:55:01Z</time>
      </trkpt>
      <trkpt lat="46.84124" lon="5.87277">
        <ele>682.1</ele>
        <time>2020-02-09T12:55:06Z</time>
      </trkpt>
      <trkpt lat="46.84121" lon="5.87272">
        <ele>682.2</ele>
        <time>2020-02-09T12:55:10Z</time>
      </trkpt>
      <trkpt lat="46.84118" lon="5.87264">
        <ele>682.3</ele>
        <time>2020-02-09T12:55:13Z</time>
      </trkpt>
      <trkpt lat="46.84114" lon="5.87257">
        <ele>682.7</ele>
        <time>2020-02-09T12:55:17Z</time>
      </trkpt>
      <trkpt lat="46.8411" lon="5.87253">
        <ele>683.2</ele>
        <time>2020-02-09T12:55:21Z</time>
      </trkpt>
      <trkpt lat="46.84106" lon="5.8725">
        <ele>683.9</ele>
        <time>2020-02-09T12:55:26Z</time>
      </trkpt>
      <trkpt lat="46.84102" lon="5.87246">
        <ele>684.4</ele>
        <time>2020-02-09T12:55:30Z</time>
      </trkpt>
      <trkpt lat="46.84099" lon="5.87242">
        <ele>684.8</ele>
        <time>2020-02-09T12:55:33Z</time>
      </trkpt>
      <trkpt lat="46.84094" lon="5.87238">
        <ele>685.2</ele>
        <time>2020-02-09T12:55:37Z</time>
      </trkpt>
      <trkpt lat="46.8409" lon="5.87234">
        <ele>685.7</ele>
        <time>2020-02-09T12:55:42Z</time>
      </trkpt>
      <trkpt lat="46.84085" lon="5.87232">
        <ele>686</ele>
        <time>2020-02-09T12:55:46Z</time>
      </trkpt>
      <trkpt lat="46.84081" lon="5.8723">
        <ele>686.2</ele>
        <time>2020-02-09T12:55:51Z</time>
      </trkpt>
      <trkpt lat="46.84075" lon="5.87229">
        <ele>686.5</ele>
        <time>2020-02-09T12:55:57Z</time>
      </trkpt>
      <trkpt lat="46.8407" lon="5.87228">
        <ele>686.8</ele>
        <time>2020-02-09T12:56:01Z</time>
      </trkpt>
      <trkpt lat="46.84064" lon="5.87228">
        <ele>687</ele>
        <time>2020-02-09T12:56:05Z</time>
      </trkpt>
      <trkpt lat="46.84059" lon="5.87225">
        <ele>687</ele>
        <time>2020-02-09T12:56:09Z</time>
      </trkpt>
      <trkpt lat="46.84054" lon="5.87225">
        <ele>686.7</ele>
        <time>2020-02-09T12:56:14Z</time>
      </trkpt>
      <trkpt lat="46.84048" lon="5.87224">
        <ele>686.3</ele>
        <time>2020-02-09T12:56:18Z</time>
      </trkpt>
      <trkpt lat="46.84043" lon="5.87225">
        <ele>685.8</ele>
        <time>2020-02-09T12:56:24Z</time>
      </trkpt>
      <trkpt lat="46.84039" lon="5.87225">
        <ele>685.6</ele>
        <time>2020-02-09T12:56:28Z</time>
      </trkpt>
      <trkpt lat="46.84034" lon="5.87223">
        <ele>685.3</ele>
        <time>2020-02-09T12:56:31Z</time>
      </trkpt>
      <trkpt lat="46.8403" lon="5.8722">
        <ele>685.2</ele>
        <time>2020-02-09T12:56:36Z</time>
      </trkpt>
      <trkpt lat="46.84026" lon="5.87217">
        <ele>685</ele>
        <time>2020-02-09T12:56:40Z</time>
      </trkpt>
      <trkpt lat="46.84021" lon="5.87215">
        <ele>684.8</ele>
        <time>2020-02-09T12:56:43Z</time>
      </trkpt>
      <trkpt lat="46.84016" lon="5.87212">
        <ele>684.7</ele>
        <time>2020-02-09T12:56:46Z</time>
      </trkpt>
      <trkpt lat="46.84011" lon="5.87208">
        <ele>684.6</ele>
        <time>2020-02-09T12:56:50Z</time>
      </trkpt>
      <trkpt lat="46.84007" lon="5.87204">
        <ele>684.6</ele>
        <time>2020-02-09T12:56:55Z</time>
      </trkpt>
      <trkpt lat="46.84004" lon="5.87199">
        <ele>684.7</ele>
        <time>2020-02-09T12:56:59Z</time>
      </trkpt>
      <trkpt lat="46.84001" lon="5.87194">
        <ele>684.7</ele>
        <time>2020-02-09T12:57:03Z</time>
      </trkpt>
      <trkpt lat="46.83997" lon="5.87189">
        <ele>684.8</ele>
        <time>2020-02-09T12:57:08Z</time>
      </trkpt>
      <trkpt lat="46.83993" lon="5.87183">
        <ele>684.9</ele>
        <time>2020-02-09T12:57:12Z</time>
      </trkpt>
      <trkpt lat="46.83989" lon="5.87177">
        <ele>684.9</ele>
        <time>2020-02-09T12:57:16Z</time>
      </trkpt>
      <trkpt lat="46.83987" lon="5.8717">
        <ele>685</ele>
        <time>2020-02-09T12:57:20Z</time>
      </trkpt>
      <trkpt lat="46.83986" lon="5.87163">
        <ele>685.1</ele>
        <time>2020-02-09T12:57:25Z</time>
      </trkpt>
      <trkpt lat="46.83985" lon="5.87157">
        <ele>685.2</ele>
        <time>2020-02-09T12:57:31Z</time>
      </trkpt>
      <trkpt lat="46.83984" lon="5.8715">
        <ele>685.5</ele>
        <time>2020-02-09T12:57:36Z</time>
      </trkpt>
      <trkpt lat="46.83982" lon="5.87143">
        <ele>685.9</ele>
        <time>2020-02-09T12:57:41Z</time>
      </trkpt>
      <trkpt lat="46.83979" lon="5.87136">
        <ele>686.6</ele>
        <time>2020-02-09T12:57:45Z</time>
      </trkpt>
      <trkpt lat="46.83977" lon="5.8713">
        <ele>687.5</ele>
        <time>2020-02-09T12:57:50Z</time>
      </trkpt>
      <trkpt lat="46.83974" lon="5.87125">
        <ele>688.4</ele>
        <time>2020-02-09T12:57:54Z</time>
      </trkpt>
      <trkpt lat="46.83969" lon="5.87119">
        <ele>689.1</ele>
        <time>2020-02-09T12:57:58Z</time>
      </trkpt>
      <trkpt lat="46.83966" lon="5.87114">
        <ele>689.9</ele>
        <time>2020-02-09T12:58:03Z</time>
      </trkpt>
      <trkpt lat="46.83962" lon="5.87108">
        <ele>690.3</ele>
        <time>2020-02-09T12:58:09Z</time>
      </trkpt>
      <trkpt lat="46.8396" lon="5.87101">
        <ele>690.6</ele>
        <time>2020-02-09T12:58:14Z</time>
      </trkpt>
      <trkpt lat="46.83957" lon="5.87093">
        <ele>691</ele>
        <time>2020-02-09T12:58:18Z</time>
      </trkpt>
      <trkpt lat="46.83956" lon="5.87085">
        <ele>691.4</ele>
        <time>2020-02-09T12:58:22Z</time>
      </trkpt>
      <trkpt lat="46.83954" lon="5.87077">
        <ele>692.2</ele>
        <time>2020-02-09T12:58:27Z</time>
      </trkpt>
      <trkpt lat="46.83954" lon="5.87071">
        <ele>693</ele>
        <time>2020-02-09T12:58:33Z</time>
      </trkpt>
      <trkpt lat="46.83953" lon="5.87063">
        <ele>693.3</ele>
        <time>2020-02-09T12:58:38Z</time>
      </trkpt>
      <trkpt lat="46.83953" lon="5.87055">
        <ele>693.3</ele>
        <time>2020-02-09T12:58:43Z</time>
      </trkpt>
      <trkpt lat="46.83952" lon="5.87048">
        <ele>693.2</ele>
        <time>2020-02-09T12:58:48Z</time>
      </trkpt>
      <trkpt lat="46.83951" lon="5.87041">
        <ele>693.3</ele>
        <time>2020-02-09T12:58:52Z</time>
      </trkpt>
      <trkpt lat="46.83952" lon="5.87034">
        <ele>693.3</ele>
        <time>2020-02-09T12:58:59Z</time>
      </trkpt>
      <trkpt lat="46.83947" lon="5.87033">
        <ele>694.7</ele>
        <time>2020-02-09T12:59:52Z</time>
      </trkpt>
      <trkpt lat="46.83942" lon="5.87029">
        <ele>695.5</ele>
        <time>2020-02-09T12:59:59Z</time>
      </trkpt>
      <trkpt lat="46.83938" lon="5.87025">
        <ele>696</ele>
        <time>2020-02-09T13:00:04Z</time>
      </trkpt>
      <trkpt lat="46.83934" lon="5.8702">
        <ele>696.4</ele>
        <time>2020-02-09T13:00:10Z</time>
      </trkpt>
      <trkpt lat="46.8393" lon="5.87015">
        <ele>696.7</ele>
        <time>2020-02-09T13:00:15Z</time>
      </trkpt>
      <trkpt lat="46.83927" lon="5.87008">
        <ele>697.3</ele>
        <time>2020-02-09T13:00:21Z</time>
      </trkpt>
      <trkpt lat="46.83923" lon="5.87003">
        <ele>697.6</ele>
        <time>2020-02-09T13:00:26Z</time>
      </trkpt>
      <trkpt lat="46.83919" lon="5.86999">
        <ele>697.4</ele>
        <time>2020-02-09T13:00:30Z</time>
      </trkpt>
      <trkpt lat="46.83916" lon="5.86994">
        <ele>697</ele>
        <time>2020-02-09T13:00:36Z</time>
      </trkpt>
      <trkpt lat="46.83913" lon="5.86989">
        <ele>696.3</ele>
        <time>2020-02-09T13:00:41Z</time>
      </trkpt>
      <trkpt lat="46.83911" lon="5.86983">
        <ele>695.2</ele>
        <time>2020-02-09T13:00:48Z</time>
      </trkpt>
      <trkpt lat="46.83912" lon="5.86975">
        <ele>694.3</ele>
        <time>2020-02-09T13:00:53Z</time>
      </trkpt>
      <trkpt lat="46.83913" lon="5.86968">
        <ele>693.3</ele>
        <time>2020-02-09T13:00:58Z</time>
      </trkpt>
      <trkpt lat="46.83915" lon="5.86951">
        <ele>690.4</ele>
        <time>2020-02-09T13:01:13Z</time>
      </trkpt>
      <trkpt lat="46.83915" lon="5.86944">
        <ele>690.3</ele>
        <time>2020-02-09T13:01:19Z</time>
      </trkpt>
      <trkpt lat="46.83916" lon="5.86937">
        <ele>690.6</ele>
        <time>2020-02-09T13:01:23Z</time>
      </trkpt>
      <trkpt lat="46.83916" lon="5.86929">
        <ele>691</ele>
        <time>2020-02-09T13:01:26Z</time>
      </trkpt>
      <trkpt lat="46.83916" lon="5.86922">
        <ele>691.7</ele>
        <time>2020-02-09T13:01:29Z</time>
      </trkpt>
      <trkpt lat="46.83917" lon="5.86915">
        <ele>692.3</ele>
        <time>2020-02-09T13:01:32Z</time>
      </trkpt>
      <trkpt lat="46.83919" lon="5.86906">
        <ele>693.2</ele>
        <time>2020-02-09T13:01:37Z</time>
      </trkpt>
      <trkpt lat="46.83921" lon="5.869">
        <ele>693.6</ele>
        <time>2020-02-09T13:01:40Z</time>
      </trkpt>
      <trkpt lat="46.83922" lon="5.86892">
        <ele>693.9</ele>
        <time>2020-02-09T13:01:45Z</time>
      </trkpt>
      <trkpt lat="46.83923" lon="5.86885">
        <ele>694.2</ele>
        <time>2020-02-09T13:01:49Z</time>
      </trkpt>
      <trkpt lat="46.83925" lon="5.86878">
        <ele>694.2</ele>
        <time>2020-02-09T13:01:53Z</time>
      </trkpt>
      <trkpt lat="46.83924" lon="5.86871">
        <ele>694.1</ele>
        <time>2020-02-09T13:01:58Z</time>
      </trkpt>
      <trkpt lat="46.83923" lon="5.86865">
        <ele>693.4</ele>
        <time>2020-02-09T13:02:04Z</time>
      </trkpt>
      <trkpt lat="46.8392" lon="5.86859">
        <ele>692.8</ele>
        <time>2020-02-09T13:02:08Z</time>
      </trkpt>
      <trkpt lat="46.8392" lon="5.86852">
        <ele>690.9</ele>
        <time>2020-02-09T13:02:18Z</time>
      </trkpt>
      <trkpt lat="46.83921" lon="5.86845">
        <ele>689.7</ele>
        <time>2020-02-09T13:02:28Z</time>
      </trkpt>
      <trkpt lat="46.8392" lon="5.86838">
        <ele>689.4</ele>
        <time>2020-02-09T13:02:32Z</time>
      </trkpt>
      <trkpt lat="46.83918" lon="5.8683">
        <ele>688.9</ele>
        <time>2020-02-09T13:02:37Z</time>
      </trkpt>
      <trkpt lat="46.83915" lon="5.86824">
        <ele>688.5</ele>
        <time>2020-02-09T13:02:41Z</time>
      </trkpt>
      <trkpt lat="46.83914" lon="5.86817">
        <ele>688.3</ele>
        <time>2020-02-09T13:02:47Z</time>
      </trkpt>
      <trkpt lat="46.83912" lon="5.86811">
        <ele>688.5</ele>
        <time>2020-02-09T13:02:51Z</time>
      </trkpt>
      <trkpt lat="46.83911" lon="5.86802">
        <ele>688.7</ele>
        <time>2020-02-09T13:02:53Z</time>
      </trkpt>
      <trkpt lat="46.83908" lon="5.86793">
        <ele>688.9</ele>
        <time>2020-02-09T13:02:55Z</time>
      </trkpt>
      <trkpt lat="46.83907" lon="5.86785">
        <ele>689.2</ele>
        <time>2020-02-09T13:02:57Z</time>
      </trkpt>
      <trkpt lat="46.83905" lon="5.86778">
        <ele>689.5</ele>
        <time>2020-02-09T13:03:00Z</time>
      </trkpt>
      <trkpt lat="46.83903" lon="5.86767">
        <ele>690.6</ele>
        <time>2020-02-09T13:03:08Z</time>
      </trkpt>
      <trkpt lat="46.83901" lon="5.8676">
        <ele>691</ele>
        <time>2020-02-09T13:03:14Z</time>
      </trkpt>
      <trkpt lat="46.83899" lon="5.86751">
        <ele>691</ele>
        <time>2020-02-09T13:03:18Z</time>
      </trkpt>
      <trkpt lat="46.83897" lon="5.86744">
        <ele>691.1</ele>
        <time>2020-02-09T13:03:21Z</time>
      </trkpt>
      <trkpt lat="46.83896" lon="5.86736">
        <ele>691.3</ele>
        <time>2020-02-09T13:03:24Z</time>
      </trkpt>
      <trkpt lat="46.83895" lon="5.86729">
        <ele>691.4</ele>
        <time>2020-02-09T13:03:28Z</time>
      </trkpt>
      <trkpt lat="46.83893" lon="5.86721">
        <ele>691</ele>
        <time>2020-02-09T13:03:33Z</time>
      </trkpt>
      <trkpt lat="46.83892" lon="5.86714">
        <ele>690.4</ele>
        <time>2020-02-09T13:03:40Z</time>
      </trkpt>
      <trkpt lat="46.83891" lon="5.86707">
        <ele>689.9</ele>
        <time>2020-02-09T13:03:46Z</time>
      </trkpt>
      <trkpt lat="46.83892" lon="5.867">
        <ele>689.5</ele>
        <time>2020-02-09T13:03:53Z</time>
      </trkpt>
      <trkpt lat="46.83892" lon="5.86694">
        <ele>689.1</ele>
        <time>2020-02-09T13:03:59Z</time>
      </trkpt>
      <trkpt lat="46.8389" lon="5.86687">
        <ele>688.9</ele>
        <time>2020-02-09T13:04:03Z</time>
      </trkpt>
      <trkpt lat="46.83888" lon="5.86681">
        <ele>688.6</ele>
        <time>2020-02-09T13:04:07Z</time>
      </trkpt>
      <trkpt lat="46.83886" lon="5.86674">
        <ele>688.3</ele>
        <time>2020-02-09T13:04:10Z</time>
      </trkpt>
      <trkpt lat="46.83883" lon="5.86667">
        <ele>687.9</ele>
        <time>2020-02-09T13:04:13Z</time>
      </trkpt>
      <trkpt lat="46.83881" lon="5.86659">
        <ele>687.2</ele>
        <time>2020-02-09T13:04:19Z</time>
      </trkpt>
      <trkpt lat="46.83879" lon="5.86653">
        <ele>686.5</ele>
        <time>2020-02-09T13:04:23Z</time>
      </trkpt>
      <trkpt lat="46.83877" lon="5.86646">
        <ele>685.6</ele>
        <time>2020-02-09T13:04:29Z</time>
      </trkpt>
      <trkpt lat="46.83872" lon="5.86646">
        <ele>684.3</ele>
        <time>2020-02-09T13:04:44Z</time>
      </trkpt>
      <trkpt lat="46.83874" lon="5.8664">
        <ele>685.1</ele>
        <time>2020-02-09T13:05:08Z</time>
      </trkpt>
      <trkpt lat="46.83873" lon="5.86632">
        <ele>685.5</ele>
        <time>2020-02-09T13:05:12Z</time>
      </trkpt>
      <trkpt lat="46.83873" lon="5.86625">
        <ele>685.8</ele>
        <time>2020-02-09T13:05:16Z</time>
      </trkpt>
      <trkpt lat="46.83874" lon="5.86618">
        <ele>686</ele>
        <time>2020-02-09T13:05:20Z</time>
      </trkpt>
      <trkpt lat="46.83875" lon="5.8661">
        <ele>686.2</ele>
        <time>2020-02-09T13:05:24Z</time>
      </trkpt>
      <trkpt lat="46.83876" lon="5.86603">
        <ele>686.5</ele>
        <time>2020-02-09T13:05:28Z</time>
      </trkpt>
      <trkpt lat="46.83878" lon="5.86597">
        <ele>687</ele>
        <time>2020-02-09T13:05:39Z</time>
      </trkpt>
      <trkpt lat="46.83877" lon="5.86589">
        <ele>687.8</ele>
        <time>2020-02-09T13:05:54Z</time>
      </trkpt>
      <trkpt lat="46.83875" lon="5.86584">
        <ele>688.1</ele>
        <time>2020-02-09T13:05:57Z</time>
      </trkpt>
      <trkpt lat="46.83872" lon="5.86577">
        <ele>688.2</ele>
        <time>2020-02-09T13:06:01Z</time>
      </trkpt>
      <trkpt lat="46.83871" lon="5.8657">
        <ele>688.2</ele>
        <time>2020-02-09T13:06:05Z</time>
      </trkpt>
      <trkpt lat="46.83868" lon="5.86564">
        <ele>688.2</ele>
        <time>2020-02-09T13:06:10Z</time>
      </trkpt>
      <trkpt lat="46.83863" lon="5.86559">
        <ele>688.1</ele>
        <time>2020-02-09T13:06:15Z</time>
      </trkpt>
      <trkpt lat="46.83858" lon="5.86555">
        <ele>687.7</ele>
        <time>2020-02-09T13:06:20Z</time>
      </trkpt>
      <trkpt lat="46.83854" lon="5.8655">
        <ele>687.4</ele>
        <time>2020-02-09T13:06:25Z</time>
      </trkpt>
      <trkpt lat="46.8385" lon="5.86544">
        <ele>687</ele>
        <time>2020-02-09T13:06:29Z</time>
      </trkpt>
      <trkpt lat="46.83846" lon="5.8654">
        <ele>686.3</ele>
        <time>2020-02-09T13:06:33Z</time>
      </trkpt>
      <trkpt lat="46.83843" lon="5.86535">
        <ele>685.7</ele>
        <time>2020-02-09T13:06:37Z</time>
      </trkpt>
      <trkpt lat="46.8384" lon="5.8653">
        <ele>685.1</ele>
        <time>2020-02-09T13:06:41Z</time>
      </trkpt>
      <trkpt lat="46.83838" lon="5.86523">
        <ele>684.2</ele>
        <time>2020-02-09T13:06:47Z</time>
      </trkpt>
      <trkpt lat="46.83834" lon="5.86519">
        <ele>683.5</ele>
        <time>2020-02-09T13:06:51Z</time>
      </trkpt>
      <trkpt lat="46.8383" lon="5.86515">
        <ele>682.7</ele>
        <time>2020-02-09T13:06:55Z</time>
      </trkpt>
      <trkpt lat="46.83826" lon="5.86512">
        <ele>681.8</ele>
        <time>2020-02-09T13:06:59Z</time>
      </trkpt>
      <trkpt lat="46.83822" lon="5.86508">
        <ele>681.2</ele>
        <time>2020-02-09T13:07:03Z</time>
      </trkpt>
      <trkpt lat="46.83818" lon="5.86504">
        <ele>680.6</ele>
        <time>2020-02-09T13:07:08Z</time>
      </trkpt>
      <trkpt lat="46.83814" lon="5.865">
        <ele>680.5</ele>
        <time>2020-02-09T13:07:14Z</time>
      </trkpt>
      <trkpt lat="46.83809" lon="5.86497">
        <ele>681.1</ele>
        <time>2020-02-09T13:07:19Z</time>
      </trkpt>
      <trkpt lat="46.83805" lon="5.86494">
        <ele>682.3</ele>
        <time>2020-02-09T13:07:24Z</time>
      </trkpt>
      <trkpt lat="46.838" lon="5.86492">
        <ele>683.6</ele>
        <time>2020-02-09T13:07:28Z</time>
      </trkpt>
      <trkpt lat="46.83795" lon="5.86489">
        <ele>685.1</ele>
        <time>2020-02-09T13:07:32Z</time>
      </trkpt>
      <trkpt lat="46.8379" lon="5.86489">
        <ele>686.3</ele>
        <time>2020-02-09T13:07:36Z</time>
      </trkpt>
      <trkpt lat="46.83784" lon="5.8649">
        <ele>687.4</ele>
        <time>2020-02-09T13:07:40Z</time>
      </trkpt>
      <trkpt lat="46.83779" lon="5.86489">
        <ele>688.5</ele>
        <time>2020-02-09T13:07:45Z</time>
      </trkpt>
      <trkpt lat="46.83774" lon="5.86489">
        <ele>688.9</ele>
        <time>2020-02-09T13:07:50Z</time>
      </trkpt>
      <trkpt lat="46.83769" lon="5.8649">
        <ele>688.9</ele>
        <time>2020-02-09T13:07:53Z</time>
      </trkpt>
      <trkpt lat="46.83765" lon="5.86492">
        <ele>688.5</ele>
        <time>2020-02-09T13:07:58Z</time>
      </trkpt>
      <trkpt lat="46.8376" lon="5.86492">
        <ele>687.8</ele>
        <time>2020-02-09T13:08:03Z</time>
      </trkpt>
      <trkpt lat="46.83755" lon="5.86493">
        <ele>687.1</ele>
        <time>2020-02-09T13:08:08Z</time>
      </trkpt>
      <trkpt lat="46.8375" lon="5.86495">
        <ele>686.3</ele>
        <time>2020-02-09T13:08:13Z</time>
      </trkpt>
      <trkpt lat="46.83745" lon="5.86497">
        <ele>685.5</ele>
        <time>2020-02-09T13:08:17Z</time>
      </trkpt>
      <trkpt lat="46.83741" lon="5.86499">
        <ele>684.2</ele>
        <time>2020-02-09T13:08:22Z</time>
      </trkpt>
      <trkpt lat="46.83736" lon="5.865">
        <ele>682.6</ele>
        <time>2020-02-09T13:08:27Z</time>
      </trkpt>
      <trkpt lat="46.83731" lon="5.865">
        <ele>681.4</ele>
        <time>2020-02-09T13:08:32Z</time>
      </trkpt>
      <trkpt lat="46.83726" lon="5.86502">
        <ele>680.6</ele>
        <time>2020-02-09T13:08:36Z</time>
      </trkpt>
      <trkpt lat="46.83721" lon="5.86504">
        <ele>680</ele>
        <time>2020-02-09T13:08:39Z</time>
      </trkpt>
      <trkpt lat="46.83716" lon="5.86505">
        <ele>679.4</ele>
        <time>2020-02-09T13:08:43Z</time>
      </trkpt>
      <trkpt lat="46.83711" lon="5.86508">
        <ele>678.9</ele>
        <time>2020-02-09T13:08:48Z</time>
      </trkpt>
      <trkpt lat="46.83706" lon="5.86509">
        <ele>678</ele>
        <time>2020-02-09T13:08:54Z</time>
      </trkpt>
      <trkpt lat="46.83702" lon="5.86509">
        <ele>677.1</ele>
        <time>2020-02-09T13:08:59Z</time>
      </trkpt>
      <trkpt lat="46.83696" lon="5.8651">
        <ele>676.5</ele>
        <time>2020-02-09T13:09:02Z</time>
      </trkpt>
      <trkpt lat="46.83692" lon="5.86511">
        <ele>675.9</ele>
        <time>2020-02-09T13:09:06Z</time>
      </trkpt>
      <trkpt lat="46.83687" lon="5.86512">
        <ele>675.3</ele>
        <time>2020-02-09T13:09:11Z</time>
      </trkpt>
      <trkpt lat="46.83682" lon="5.86513">
        <ele>675.2</ele>
        <time>2020-02-09T13:09:15Z</time>
      </trkpt>
      <trkpt lat="46.83677" lon="5.86514">
        <ele>675.3</ele>
        <time>2020-02-09T13:09:19Z</time>
      </trkpt>
      <trkpt lat="46.83673" lon="5.86516">
        <ele>675.5</ele>
        <time>2020-02-09T13:09:23Z</time>
      </trkpt>
      <trkpt lat="46.83668" lon="5.86517">
        <ele>675.7</ele>
        <time>2020-02-09T13:09:29Z</time>
      </trkpt>
      <trkpt lat="46.83663" lon="5.86519">
        <ele>675.9</ele>
        <time>2020-02-09T13:09:35Z</time>
      </trkpt>
      <trkpt lat="46.83658" lon="5.86519">
        <ele>676.1</ele>
        <time>2020-02-09T13:09:40Z</time>
      </trkpt>
      <trkpt lat="46.83653" lon="5.86521">
        <ele>676.3</ele>
        <time>2020-02-09T13:09:45Z</time>
      </trkpt>
      <trkpt lat="46.83648" lon="5.86522">
        <ele>676.5</ele>
        <time>2020-02-09T13:09:49Z</time>
      </trkpt>
      <trkpt lat="46.83644" lon="5.86522">
        <ele>676.8</ele>
        <time>2020-02-09T13:09:52Z</time>
      </trkpt>
      <trkpt lat="46.83639" lon="5.86524">
        <ele>677.7</ele>
        <time>2020-02-09T13:09:57Z</time>
      </trkpt>
      <trkpt lat="46.83634" lon="5.86527">
        <ele>678.5</ele>
        <time>2020-02-09T13:10:01Z</time>
      </trkpt>
      <trkpt lat="46.83629" lon="5.86529">
        <ele>679.3</ele>
        <time>2020-02-09T13:10:05Z</time>
      </trkpt>
      <trkpt lat="46.83624" lon="5.86529">
        <ele>680.1</ele>
        <time>2020-02-09T13:10:10Z</time>
      </trkpt>
      <trkpt lat="46.83619" lon="5.86527">
        <ele>680.8</ele>
        <time>2020-02-09T13:10:15Z</time>
      </trkpt>
      <trkpt lat="46.83614" lon="5.86527">
        <ele>681.1</ele>
        <time>2020-02-09T13:10:19Z</time>
      </trkpt>
      <trkpt lat="46.83608" lon="5.86527">
        <ele>681.6</ele>
        <time>2020-02-09T13:10:23Z</time>
      </trkpt>
      <trkpt lat="46.83603" lon="5.86527">
        <ele>682.1</ele>
        <time>2020-02-09T13:10:27Z</time>
      </trkpt>
      <trkpt lat="46.83597" lon="5.86526">
        <ele>682.4</ele>
        <time>2020-02-09T13:10:31Z</time>
      </trkpt>
      <trkpt lat="46.83592" lon="5.86525">
        <ele>682.5</ele>
        <time>2020-02-09T13:10:36Z</time>
      </trkpt>
      <trkpt lat="46.83584" lon="5.86524">
        <ele>680.7</ele>
        <time>2020-02-09T13:10:54Z</time>
      </trkpt>
      <trkpt lat="46.83579" lon="5.86525">
        <ele>680.3</ele>
        <time>2020-02-09T13:11:00Z</time>
      </trkpt>
      <trkpt lat="46.83575" lon="5.86528">
        <ele>680.3</ele>
        <time>2020-02-09T13:11:06Z</time>
      </trkpt>
      <trkpt lat="46.8357" lon="5.8653">
        <ele>680.6</ele>
        <time>2020-02-09T13:11:10Z</time>
      </trkpt>
      <trkpt lat="46.83564" lon="5.86531">
        <ele>681.2</ele>
        <time>2020-02-09T13:11:15Z</time>
      </trkpt>
      <trkpt lat="46.83558" lon="5.86532">
        <ele>681.5</ele>
        <time>2020-02-09T13:11:19Z</time>
      </trkpt>
      <trkpt lat="46.83553" lon="5.86533">
        <ele>681.7</ele>
        <time>2020-02-09T13:11:23Z</time>
      </trkpt>
      <trkpt lat="46.83548" lon="5.86531">
        <ele>681.8</ele>
        <time>2020-02-09T13:11:27Z</time>
      </trkpt>
      <trkpt lat="46.83544" lon="5.86528">
        <ele>681.6</ele>
        <time>2020-02-09T13:11:31Z</time>
      </trkpt>
      <trkpt lat="46.8354" lon="5.86523">
        <ele>681.3</ele>
        <time>2020-02-09T13:11:36Z</time>
      </trkpt>
      <trkpt lat="46.83537" lon="5.86518">
        <ele>681.1</ele>
        <time>2020-02-09T13:11:42Z</time>
      </trkpt>
      <trkpt lat="46.83534" lon="5.86511">
        <ele>681</ele>
        <time>2020-02-09T13:11:48Z</time>
      </trkpt>
      <trkpt lat="46.83531" lon="5.86505">
        <ele>680.9</ele>
        <time>2020-02-09T13:11:52Z</time>
      </trkpt>
      <trkpt lat="46.83527" lon="5.86499">
        <ele>680.6</ele>
        <time>2020-02-09T13:11:56Z</time>
      </trkpt>
      <trkpt lat="46.83526" lon="5.86493">
        <ele>679.9</ele>
        <time>2020-02-09T13:12:01Z</time>
      </trkpt>
      <trkpt lat="46.83524" lon="5.86486">
        <ele>679.3</ele>
        <time>2020-02-09T13:12:06Z</time>
      </trkpt>
      <trkpt lat="46.83522" lon="5.86478">
        <ele>678.7</ele>
        <time>2020-02-09T13:12:10Z</time>
      </trkpt>
      <trkpt lat="46.83519" lon="5.86472">
        <ele>678</ele>
        <time>2020-02-09T13:12:13Z</time>
      </trkpt>
      <trkpt lat="46.83518" lon="5.86465">
        <ele>677.1</ele>
        <time>2020-02-09T13:12:17Z</time>
      </trkpt>
      <trkpt lat="46.83518" lon="5.86456">
        <ele>676.3</ele>
        <time>2020-02-09T13:12:21Z</time>
      </trkpt>
      <trkpt lat="46.83518" lon="5.86448">
        <ele>675.4</ele>
        <time>2020-02-09T13:12:25Z</time>
      </trkpt>
      <trkpt lat="46.83518" lon="5.86441">
        <ele>674.6</ele>
        <time>2020-02-09T13:12:29Z</time>
      </trkpt>
      <trkpt lat="46.83518" lon="5.86434">
        <ele>673.8</ele>
        <time>2020-02-09T13:12:33Z</time>
      </trkpt>
      <trkpt lat="46.83519" lon="5.86427">
        <ele>672.7</ele>
        <time>2020-02-09T13:12:38Z</time>
      </trkpt>
      <trkpt lat="46.8352" lon="5.86419">
        <ele>671.9</ele>
        <time>2020-02-09T13:12:43Z</time>
      </trkpt>
      <trkpt lat="46.83519" lon="5.86412">
        <ele>671.3</ele>
        <time>2020-02-09T13:12:46Z</time>
      </trkpt>
      <trkpt lat="46.83519" lon="5.86405">
        <ele>670.8</ele>
        <time>2020-02-09T13:12:50Z</time>
      </trkpt>
      <trkpt lat="46.83519" lon="5.86398">
        <ele>670.2</ele>
        <time>2020-02-09T13:12:56Z</time>
      </trkpt>
      <trkpt lat="46.83519" lon="5.8639">
        <ele>669.8</ele>
        <time>2020-02-09T13:13:01Z</time>
      </trkpt>
      <trkpt lat="46.83517" lon="5.86383">
        <ele>669.4</ele>
        <time>2020-02-09T13:13:05Z</time>
      </trkpt>
      <trkpt lat="46.83516" lon="5.86376">
        <ele>669</ele>
        <time>2020-02-09T13:13:09Z</time>
      </trkpt>
      <trkpt lat="46.83514" lon="5.86369">
        <ele>668.7</ele>
        <time>2020-02-09T13:13:13Z</time>
      </trkpt>
      <trkpt lat="46.83512" lon="5.86362">
        <ele>668.2</ele>
        <time>2020-02-09T13:13:18Z</time>
      </trkpt>
      <trkpt lat="46.83511" lon="5.86355">
        <ele>667.5</ele>
        <time>2020-02-09T13:13:23Z</time>
      </trkpt>
      <trkpt lat="46.83509" lon="5.86348">
        <ele>666.8</ele>
        <time>2020-02-09T13:13:28Z</time>
      </trkpt>
      <trkpt lat="46.83508" lon="5.8634">
        <ele>666</ele>
        <time>2020-02-09T13:13:33Z</time>
      </trkpt>
      <trkpt lat="46.83506" lon="5.86335">
        <ele>665.7</ele>
        <time>2020-02-09T13:13:36Z</time>
      </trkpt>
      <trkpt lat="46.83502" lon="5.86329">
        <ele>665.2</ele>
        <time>2020-02-09T13:13:40Z</time>
      </trkpt>
      <trkpt lat="46.83499" lon="5.86324">
        <ele>664.9</ele>
        <time>2020-02-09T13:13:43Z</time>
      </trkpt>
      <trkpt lat="46.83495" lon="5.8632">
        <ele>664.6</ele>
        <time>2020-02-09T13:13:47Z</time>
      </trkpt>
      <trkpt lat="46.83491" lon="5.86315">
        <ele>664</ele>
        <time>2020-02-09T13:13:53Z</time>
      </trkpt>
      <trkpt lat="46.83486" lon="5.8631">
        <ele>663.6</ele>
        <time>2020-02-09T13:13:58Z</time>
      </trkpt>
      <trkpt lat="46.83482" lon="5.86306">
        <ele>663.3</ele>
        <time>2020-02-09T13:14:02Z</time>
      </trkpt>
      <trkpt lat="46.83476" lon="5.86303">
        <ele>662.9</ele>
        <time>2020-02-09T13:14:06Z</time>
      </trkpt>
      <trkpt lat="46.83471" lon="5.86302">
        <ele>662.6</ele>
        <time>2020-02-09T13:14:10Z</time>
      </trkpt>
      <trkpt lat="46.83466" lon="5.863">
        <ele>662.2</ele>
        <time>2020-02-09T13:14:15Z</time>
      </trkpt>
      <trkpt lat="46.8346" lon="5.863">
        <ele>661.8</ele>
        <time>2020-02-09T13:14:20Z</time>
      </trkpt>
      <trkpt lat="46.83456" lon="5.86301">
        <ele>661.3</ele>
        <time>2020-02-09T13:14:25Z</time>
      </trkpt>
      <trkpt lat="46.83451" lon="5.86302">
        <ele>661</ele>
        <time>2020-02-09T13:14:30Z</time>
      </trkpt>
      <trkpt lat="46.83446" lon="5.86302">
        <ele>660.8</ele>
        <time>2020-02-09T13:14:34Z</time>
      </trkpt>
      <trkpt lat="46.8344" lon="5.863">
        <ele>660.7</ele>
        <time>2020-02-09T13:14:39Z</time>
      </trkpt>
      <trkpt lat="46.83436" lon="5.86301">
        <ele>660.6</ele>
        <time>2020-02-09T13:14:43Z</time>
      </trkpt>
      <trkpt lat="46.8343" lon="5.863">
        <ele>660.6</ele>
        <time>2020-02-09T13:14:48Z</time>
      </trkpt>
      <trkpt lat="46.83425" lon="5.86299">
        <ele>660.6</ele>
        <time>2020-02-09T13:14:52Z</time>
      </trkpt>
      <trkpt lat="46.83421" lon="5.86298">
        <ele>660.6</ele>
        <time>2020-02-09T13:14:55Z</time>
      </trkpt>
      <trkpt lat="46.83416" lon="5.86295">
        <ele>660.8</ele>
        <time>2020-02-09T13:14:59Z</time>
      </trkpt>
      <trkpt lat="46.83411" lon="5.8629">
        <ele>661.2</ele>
        <time>2020-02-09T13:15:04Z</time>
      </trkpt>
      <trkpt lat="46.83406" lon="5.86287">
        <ele>661.6</ele>
        <time>2020-02-09T13:15:08Z</time>
      </trkpt>
      <trkpt lat="46.83401" lon="5.86285">
        <ele>662</ele>
        <time>2020-02-09T13:15:12Z</time>
      </trkpt>
      <trkpt lat="46.83396" lon="5.86282">
        <ele>662.7</ele>
        <time>2020-02-09T13:15:17Z</time>
      </trkpt>
      <trkpt lat="46.83392" lon="5.86278">
        <ele>663.3</ele>
        <time>2020-02-09T13:15:21Z</time>
      </trkpt>
      <trkpt lat="46.83387" lon="5.86274">
        <ele>664.6</ele>
        <time>2020-02-09T13:15:27Z</time>
      </trkpt>
      <trkpt lat="46.83383" lon="5.86271">
        <ele>665.2</ele>
        <time>2020-02-09T13:15:30Z</time>
      </trkpt>
      <trkpt lat="46.8338" lon="5.86267">
        <ele>665.9</ele>
        <time>2020-02-09T13:15:34Z</time>
      </trkpt>
      <trkpt lat="46.83375" lon="5.86264">
        <ele>666.8</ele>
        <time>2020-02-09T13:15:39Z</time>
      </trkpt>
      <trkpt lat="46.8337" lon="5.86263">
        <ele>667.6</ele>
        <time>2020-02-09T13:15:43Z</time>
      </trkpt>
      <trkpt lat="46.83365" lon="5.86261">
        <ele>668.9</ele>
        <time>2020-02-09T13:15:50Z</time>
      </trkpt>
      <trkpt lat="46.8336" lon="5.86258">
        <ele>669.6</ele>
        <time>2020-02-09T13:15:55Z</time>
      </trkpt>
      <trkpt lat="46.83355" lon="5.86256">
        <ele>670.4</ele>
        <time>2020-02-09T13:16:01Z</time>
      </trkpt>
      <trkpt lat="46.8335" lon="5.86257">
        <ele>670.7</ele>
        <time>2020-02-09T13:16:05Z</time>
      </trkpt>
      <trkpt lat="46.83345" lon="5.86257">
        <ele>670.9</ele>
        <time>2020-02-09T13:16:10Z</time>
      </trkpt>
      <trkpt lat="46.8334" lon="5.86255">
        <ele>670.5</ele>
        <time>2020-02-09T13:16:15Z</time>
      </trkpt>
      <trkpt lat="46.83335" lon="5.86253">
        <ele>669.4</ele>
        <time>2020-02-09T13:16:21Z</time>
      </trkpt>
      <trkpt lat="46.8333" lon="5.86251">
        <ele>668.4</ele>
        <time>2020-02-09T13:16:26Z</time>
      </trkpt>
      <trkpt lat="46.83326" lon="5.86247">
        <ele>667.2</ele>
        <time>2020-02-09T13:16:32Z</time>
      </trkpt>
      <trkpt lat="46.83322" lon="5.86243">
        <ele>666.4</ele>
        <time>2020-02-09T13:16:36Z</time>
      </trkpt>
      <trkpt lat="46.83317" lon="5.86238">
        <ele>665.8</ele>
        <time>2020-02-09T13:16:39Z</time>
      </trkpt>
      <trkpt lat="46.83312" lon="5.86234">
        <ele>665.3</ele>
        <time>2020-02-09T13:16:41Z</time>
      </trkpt>
      <trkpt lat="46.83307" lon="5.8623">
        <ele>664.5</ele>
        <time>2020-02-09T13:16:45Z</time>
      </trkpt>
      <trkpt lat="46.83302" lon="5.86226">
        <ele>663.7</ele>
        <time>2020-02-09T13:16:49Z</time>
      </trkpt>
      <trkpt lat="46.83298" lon="5.86223">
        <ele>662.8</ele>
        <time>2020-02-09T13:16:54Z</time>
      </trkpt>
      <trkpt lat="46.83294" lon="5.86219">
        <ele>662.1</ele>
        <time>2020-02-09T13:16:58Z</time>
      </trkpt>
      <trkpt lat="46.8329" lon="5.86215">
        <ele>661.5</ele>
        <time>2020-02-09T13:17:02Z</time>
      </trkpt>
      <trkpt lat="46.83285" lon="5.8621">
        <ele>660.9</ele>
        <time>2020-02-09T13:17:06Z</time>
      </trkpt>
      <trkpt lat="46.83282" lon="5.86207">
        <ele>660.5</ele>
        <time>2020-02-09T13:17:09Z</time>
      </trkpt>
      <trkpt lat="46.83278" lon="5.86202">
        <ele>659.8</ele>
        <time>2020-02-09T13:17:13Z</time>
      </trkpt>
      <trkpt lat="46.83273" lon="5.86198">
        <ele>659.1</ele>
        <time>2020-02-09T13:17:18Z</time>
      </trkpt>
      <trkpt lat="46.83269" lon="5.86195">
        <ele>658.3</ele>
        <time>2020-02-09T13:17:23Z</time>
      </trkpt>
      <trkpt lat="46.83265" lon="5.86191">
        <ele>657.5</ele>
        <time>2020-02-09T13:17:28Z</time>
      </trkpt>
      <trkpt lat="46.83261" lon="5.86186">
        <ele>656.6</ele>
        <time>2020-02-09T13:17:32Z</time>
      </trkpt>
      <trkpt lat="46.83257" lon="5.8618">
        <ele>656.2</ele>
        <time>2020-02-09T13:17:36Z</time>
      </trkpt>
      <trkpt lat="46.83253" lon="5.86177">
        <ele>656.1</ele>
        <time>2020-02-09T13:17:41Z</time>
      </trkpt>
      <trkpt lat="46.83248" lon="5.86171">
        <ele>656.7</ele>
        <time>2020-02-09T13:17:46Z</time>
      </trkpt>
      <trkpt lat="46.83243" lon="5.86168">
        <ele>657.1</ele>
        <time>2020-02-09T13:17:50Z</time>
      </trkpt>
      <trkpt lat="46.83239" lon="5.86165">
        <ele>657.7</ele>
        <time>2020-02-09T13:17:54Z</time>
      </trkpt>
      <trkpt lat="46.83234" lon="5.86164">
        <ele>658.2</ele>
        <time>2020-02-09T13:17:58Z</time>
      </trkpt>
      <trkpt lat="46.8323" lon="5.86168">
        <ele>658.9</ele>
        <time>2020-02-09T13:18:27Z</time>
      </trkpt>
      <trkpt lat="46.83224" lon="5.8617">
        <ele>658.7</ele>
        <time>2020-02-09T13:18:32Z</time>
      </trkpt>
      <trkpt lat="46.83218" lon="5.86169">
        <ele>658.6</ele>
        <time>2020-02-09T13:18:36Z</time>
      </trkpt>
      <trkpt lat="46.83214" lon="5.86168">
        <ele>658.6</ele>
        <time>2020-02-09T13:18:39Z</time>
      </trkpt>
      <trkpt lat="46.83209" lon="5.86167">
        <ele>658.7</ele>
        <time>2020-02-09T13:18:42Z</time>
      </trkpt>
      <trkpt lat="46.83204" lon="5.86166">
        <ele>658.7</ele>
        <time>2020-02-09T13:18:46Z</time>
      </trkpt>
      <trkpt lat="46.83199" lon="5.86164">
        <ele>658.8</ele>
        <time>2020-02-09T13:18:49Z</time>
      </trkpt>
      <trkpt lat="46.83195" lon="5.86162">
        <ele>659.2</ele>
        <time>2020-02-09T13:18:53Z</time>
      </trkpt>
      <trkpt lat="46.8319" lon="5.8616">
        <ele>659.5</ele>
        <time>2020-02-09T13:18:57Z</time>
      </trkpt>
      <trkpt lat="46.83185" lon="5.86158">
        <ele>659.4</ele>
        <time>2020-02-09T13:19:02Z</time>
      </trkpt>
      <trkpt lat="46.8318" lon="5.86157">
        <ele>659.2</ele>
        <time>2020-02-09T13:19:07Z</time>
      </trkpt>
      <trkpt lat="46.83175" lon="5.86155">
        <ele>659.3</ele>
        <time>2020-02-09T13:19:12Z</time>
      </trkpt>
      <trkpt lat="46.8317" lon="5.86152">
        <ele>659.6</ele>
        <time>2020-02-09T13:19:17Z</time>
      </trkpt>
      <trkpt lat="46.83166" lon="5.86149">
        <ele>660</ele>
        <time>2020-02-09T13:19:21Z</time>
      </trkpt>
      <trkpt lat="46.83161" lon="5.86146">
        <ele>660.3</ele>
        <time>2020-02-09T13:19:25Z</time>
      </trkpt>
      <trkpt lat="46.83158" lon="5.8614">
        <ele>660.2</ele>
        <time>2020-02-09T13:19:34Z</time>
      </trkpt>
      <trkpt lat="46.83155" lon="5.86135">
        <ele>659.8</ele>
        <time>2020-02-09T13:19:40Z</time>
      </trkpt>
      <trkpt lat="46.83151" lon="5.8613">
        <ele>659.6</ele>
        <time>2020-02-09T13:19:44Z</time>
      </trkpt>
      <trkpt lat="46.83148" lon="5.86125">
        <ele>659.2</ele>
        <time>2020-02-09T13:19:48Z</time>
      </trkpt>
      <trkpt lat="46.83146" lon="5.86119">
        <ele>658.7</ele>
        <time>2020-02-09T13:19:51Z</time>
      </trkpt>
      <trkpt lat="46.83143" lon="5.86113">
        <ele>658.3</ele>
        <time>2020-02-09T13:19:54Z</time>
      </trkpt>
      <trkpt lat="46.83141" lon="5.86106">
        <ele>657.5</ele>
        <time>2020-02-09T13:19:59Z</time>
      </trkpt>
      <trkpt lat="46.8314" lon="5.861">
        <ele>656.8</ele>
        <time>2020-02-09T13:20:03Z</time>
      </trkpt>
      <trkpt lat="46.83137" lon="5.86094">
        <ele>656.3</ele>
        <time>2020-02-09T13:20:07Z</time>
      </trkpt>
      <trkpt lat="46.83135" lon="5.86088">
        <ele>655.8</ele>
        <time>2020-02-09T13:20:11Z</time>
      </trkpt>
      <trkpt lat="46.83133" lon="5.8608">
        <ele>655.1</ele>
        <time>2020-02-09T13:20:15Z</time>
      </trkpt>
      <trkpt lat="46.83131" lon="5.86073">
        <ele>654.2</ele>
        <time>2020-02-09T13:20:19Z</time>
      </trkpt>
      <trkpt lat="46.83131" lon="5.86065">
        <ele>653</ele>
        <time>2020-02-09T13:20:24Z</time>
      </trkpt>
      <trkpt lat="46.83133" lon="5.86059">
        <ele>652.4</ele>
        <time>2020-02-09T13:20:27Z</time>
      </trkpt>
      <trkpt lat="46.83135" lon="5.86052">
        <ele>651.8</ele>
        <time>2020-02-09T13:20:32Z</time>
      </trkpt>
      <trkpt lat="46.83138" lon="5.86046">
        <ele>651.1</ele>
        <time>2020-02-09T13:20:37Z</time>
      </trkpt>
      <trkpt lat="46.83141" lon="5.8604">
        <ele>650.5</ele>
        <time>2020-02-09T13:20:42Z</time>
      </trkpt>
      <trkpt lat="46.83142" lon="5.86033">
        <ele>650</ele>
        <time>2020-02-09T13:20:46Z</time>
      </trkpt>
      <trkpt lat="46.83142" lon="5.86026">
        <ele>649.3</ele>
        <time>2020-02-09T13:20:51Z</time>
      </trkpt>
      <trkpt lat="46.83143" lon="5.86017">
        <ele>648.8</ele>
        <time>2020-02-09T13:20:55Z</time>
      </trkpt>
      <trkpt lat="46.83144" lon="5.86011">
        <ele>648.3</ele>
        <time>2020-02-09T13:21:00Z</time>
      </trkpt>
      <trkpt lat="46.83142" lon="5.86003">
        <ele>647.4</ele>
        <time>2020-02-09T13:21:39Z</time>
      </trkpt>
      <trkpt lat="46.83141" lon="5.85996">
        <ele>647.3</ele>
        <time>2020-02-09T13:21:45Z</time>
      </trkpt>
      <trkpt lat="46.83138" lon="5.85989">
        <ele>647.4</ele>
        <time>2020-02-09T13:21:49Z</time>
      </trkpt>
      <trkpt lat="46.83136" lon="5.85983">
        <ele>647.7</ele>
        <time>2020-02-09T13:21:56Z</time>
      </trkpt>
      <trkpt lat="46.83133" lon="5.85979">
        <ele>647.8</ele>
        <time>2020-02-09T13:21:59Z</time>
      </trkpt>
      <trkpt lat="46.83129" lon="5.85973">
        <ele>647.8</ele>
        <time>2020-02-09T13:22:02Z</time>
      </trkpt>
      <trkpt lat="46.83126" lon="5.85968">
        <ele>647.8</ele>
        <time>2020-02-09T13:22:05Z</time>
      </trkpt>
      <trkpt lat="46.83122" lon="5.85963">
        <ele>647.5</ele>
        <time>2020-02-09T13:22:09Z</time>
      </trkpt>
      <trkpt lat="46.83118" lon="5.85958">
        <ele>647.1</ele>
        <time>2020-02-09T13:22:13Z</time>
      </trkpt>
      <trkpt lat="46.83115" lon="5.85951">
        <ele>646.5</ele>
        <time>2020-02-09T13:22:17Z</time>
      </trkpt>
      <trkpt lat="46.83111" lon="5.85946">
        <ele>645.9</ele>
        <time>2020-02-09T13:22:22Z</time>
      </trkpt>
      <trkpt lat="46.83108" lon="5.85941">
        <ele>645.3</ele>
        <time>2020-02-09T13:22:26Z</time>
      </trkpt>
      <trkpt lat="46.83104" lon="5.85934">
        <ele>645</ele>
        <time>2020-02-09T13:22:30Z</time>
      </trkpt>
      <trkpt lat="46.83101" lon="5.85929">
        <ele>644.8</ele>
        <time>2020-02-09T13:22:34Z</time>
      </trkpt>
      <trkpt lat="46.83096" lon="5.85924">
        <ele>644.5</ele>
        <time>2020-02-09T13:22:38Z</time>
      </trkpt>
      <trkpt lat="46.83092" lon="5.8592">
        <ele>644.3</ele>
        <time>2020-02-09T13:22:42Z</time>
      </trkpt>
      <trkpt lat="46.83088" lon="5.85917">
        <ele>644</ele>
        <time>2020-02-09T13:22:47Z</time>
      </trkpt>
      <trkpt lat="46.83084" lon="5.85913">
        <ele>643.9</ele>
        <time>2020-02-09T13:22:50Z</time>
      </trkpt>
      <trkpt lat="46.83079" lon="5.85911">
        <ele>643.6</ele>
        <time>2020-02-09T13:22:56Z</time>
      </trkpt>
      <trkpt lat="46.83074" lon="5.85908">
        <ele>643.5</ele>
        <time>2020-02-09T13:23:00Z</time>
      </trkpt>
      <trkpt lat="46.83069" lon="5.85907">
        <ele>643.3</ele>
        <time>2020-02-09T13:23:04Z</time>
      </trkpt>
      <trkpt lat="46.83064" lon="5.85905">
        <ele>643.4</ele>
        <time>2020-02-09T13:23:09Z</time>
      </trkpt>
      <trkpt lat="46.83059" lon="5.85903">
        <ele>643.6</ele>
        <time>2020-02-09T13:23:13Z</time>
      </trkpt>
      <trkpt lat="46.83054" lon="5.85903">
        <ele>643.6</ele>
        <time>2020-02-09T13:23:18Z</time>
      </trkpt>
      <trkpt lat="46.83049" lon="5.85902">
        <ele>643.6</ele>
        <time>2020-02-09T13:23:22Z</time>
      </trkpt>
      <trkpt lat="46.83044" lon="5.85901">
        <ele>643.6</ele>
        <time>2020-02-09T13:23:26Z</time>
      </trkpt>
      <trkpt lat="46.83038" lon="5.85902">
        <ele>643.6</ele>
        <time>2020-02-09T13:23:30Z</time>
      </trkpt>
      <trkpt lat="46.83033" lon="5.85902">
        <ele>643.9</ele>
        <time>2020-02-09T13:23:34Z</time>
      </trkpt>
      <trkpt lat="46.83028" lon="5.85904">
        <ele>644.4</ele>
        <time>2020-02-09T13:23:40Z</time>
      </trkpt>
      <trkpt lat="46.83024" lon="5.85908">
        <ele>645</ele>
        <time>2020-02-09T13:23:45Z</time>
      </trkpt>
      <trkpt lat="46.83019" lon="5.8591">
        <ele>645.6</ele>
        <time>2020-02-09T13:23:50Z</time>
      </trkpt>
      <trkpt lat="46.83014" lon="5.85913">
        <ele>646.3</ele>
        <time>2020-02-09T13:23:57Z</time>
      </trkpt>
      <trkpt lat="46.83009" lon="5.85917">
        <ele>646.6</ele>
        <time>2020-02-09T13:24:02Z</time>
      </trkpt>
      <trkpt lat="46.83005" lon="5.8592">
        <ele>647</ele>
        <time>2020-02-09T13:24:07Z</time>
      </trkpt>
      <trkpt lat="46.83001" lon="5.85924">
        <ele>647.3</ele>
        <time>2020-02-09T13:24:11Z</time>
      </trkpt>
      <trkpt lat="46.82998" lon="5.85928">
        <ele>647.4</ele>
        <time>2020-02-09T13:24:15Z</time>
      </trkpt>
      <trkpt lat="46.82994" lon="5.85932">
        <ele>647.4</ele>
        <time>2020-02-09T13:24:18Z</time>
      </trkpt>
      <trkpt lat="46.8299" lon="5.85935">
        <ele>647.6</ele>
        <time>2020-02-09T13:24:22Z</time>
      </trkpt>
      <trkpt lat="46.82985" lon="5.85938">
        <ele>648.2</ele>
        <time>2020-02-09T13:24:28Z</time>
      </trkpt>
      <trkpt lat="46.82981" lon="5.8594">
        <ele>649.1</ele>
        <time>2020-02-09T13:24:34Z</time>
      </trkpt>
      <trkpt lat="46.82976" lon="5.85944">
        <ele>649.9</ele>
        <time>2020-02-09T13:24:40Z</time>
      </trkpt>
      <trkpt lat="46.82972" lon="5.85949">
        <ele>650.6</ele>
        <time>2020-02-09T13:24:45Z</time>
      </trkpt>
      <trkpt lat="46.82968" lon="5.85952">
        <ele>652.9</ele>
        <time>2020-02-09T13:24:57Z</time>
      </trkpt>
      <trkpt lat="46.82964" lon="5.85948">
        <ele>655.3</ele>
        <time>2020-02-09T13:25:32Z</time>
      </trkpt>
      <trkpt lat="46.82967" lon="5.85953">
        <ele>654.9</ele>
        <time>2020-02-09T13:25:53Z</time>
      </trkpt>
      <trkpt lat="46.82971" lon="5.85956">
        <ele>656.1</ele>
        <time>2020-02-09T13:26:32Z</time>
      </trkpt>
      <trkpt lat="46.82968" lon="5.85962">
        <ele>655.7</ele>
        <time>2020-02-09T13:26:46Z</time>
      </trkpt>
      <trkpt lat="46.82965" lon="5.85966">
        <ele>655.2</ele>
        <time>2020-02-09T13:26:51Z</time>
      </trkpt>
      <trkpt lat="46.8296" lon="5.8597">
        <ele>655.1</ele>
        <time>2020-02-09T13:26:56Z</time>
      </trkpt>
      <trkpt lat="46.82956" lon="5.85974">
        <ele>655.3</ele>
        <time>2020-02-09T13:27:01Z</time>
      </trkpt>
      <trkpt lat="46.82953" lon="5.85979">
        <ele>655.4</ele>
        <time>2020-02-09T13:27:06Z</time>
      </trkpt>
      <trkpt lat="46.82949" lon="5.85984">
        <ele>655.4</ele>
        <time>2020-02-09T13:27:11Z</time>
      </trkpt>
      <trkpt lat="46.82945" lon="5.8599">
        <ele>655.5</ele>
        <time>2020-02-09T13:27:15Z</time>
      </trkpt>
      <trkpt lat="46.82941" lon="5.85995">
        <ele>655.8</ele>
        <time>2020-02-09T13:27:21Z</time>
      </trkpt>
      <trkpt lat="46.82936" lon="5.85998">
        <ele>656.3</ele>
        <time>2020-02-09T13:27:26Z</time>
      </trkpt>
      <trkpt lat="46.82931" lon="5.86">
        <ele>657</ele>
        <time>2020-02-09T13:27:32Z</time>
      </trkpt>
      <trkpt lat="46.82928" lon="5.85995">
        <ele>657.4</ele>
        <time>2020-02-09T13:27:59Z</time>
      </trkpt>
      <trkpt lat="46.82923" lon="5.85986">
        <ele>657.4</ele>
        <time>2020-02-09T13:28:10Z</time>
      </trkpt>
      <trkpt lat="46.8292" lon="5.8598">
        <ele>657.4</ele>
        <time>2020-02-09T13:28:14Z</time>
      </trkpt>
      <trkpt lat="46.82917" lon="5.85973">
        <ele>657.3</ele>
        <time>2020-02-09T13:28:20Z</time>
      </trkpt>
      <trkpt lat="46.82914" lon="5.85968">
        <ele>657.2</ele>
        <time>2020-02-09T13:28:24Z</time>
      </trkpt>
      <trkpt lat="46.82909" lon="5.85967">
        <ele>657</ele>
        <time>2020-02-09T13:28:31Z</time>
      </trkpt>
      <trkpt lat="46.82906" lon="5.85972">
        <ele>657.3</ele>
        <time>2020-02-09T13:28:42Z</time>
      </trkpt>
      <trkpt lat="46.82905" lon="5.85979">
        <ele>657.3</ele>
        <time>2020-02-09T13:28:48Z</time>
      </trkpt>
      <trkpt lat="46.82906" lon="5.85986">
        <ele>657.3</ele>
        <time>2020-02-09T13:28:54Z</time>
      </trkpt>
      <trkpt lat="46.82905" lon="5.85993">
        <ele>657.6</ele>
        <time>2020-02-09T13:29:01Z</time>
      </trkpt>
      <trkpt lat="46.829" lon="5.85994">
        <ele>658.3</ele>
        <time>2020-02-09T13:29:07Z</time>
      </trkpt>
      <trkpt lat="46.82895" lon="5.85995">
        <ele>659.6</ele>
        <time>2020-02-09T13:29:14Z</time>
      </trkpt>
      <trkpt lat="46.8289" lon="5.85993">
        <ele>661.2</ele>
        <time>2020-02-09T13:29:21Z</time>
      </trkpt>
      <trkpt lat="46.82886" lon="5.85994">
        <ele>662.2</ele>
        <time>2020-02-09T13:29:27Z</time>
      </trkpt>
      <trkpt lat="46.82881" lon="5.85994">
        <ele>663.2</ele>
        <time>2020-02-09T13:29:33Z</time>
      </trkpt>
      <trkpt lat="46.82876" lon="5.85995">
        <ele>663.9</ele>
        <time>2020-02-09T13:29:39Z</time>
      </trkpt>
      <trkpt lat="46.82871" lon="5.85996">
        <ele>664.3</ele>
        <time>2020-02-09T13:29:44Z</time>
      </trkpt>
      <trkpt lat="46.82866" lon="5.85994">
        <ele>664.5</ele>
        <time>2020-02-09T13:29:48Z</time>
      </trkpt>
      <trkpt lat="46.82862" lon="5.85989">
        <ele>664.8</ele>
        <time>2020-02-09T13:29:52Z</time>
      </trkpt>
      <trkpt lat="46.82858" lon="5.85984">
        <ele>665.2</ele>
        <time>2020-02-09T13:29:56Z</time>
      </trkpt>
      <trkpt lat="46.82857" lon="5.85978">
        <ele>665.7</ele>
        <time>2020-02-09T13:29:59Z</time>
      </trkpt>
      <trkpt lat="46.82853" lon="5.85973">
        <ele>666.4</ele>
        <time>2020-02-09T13:30:03Z</time>
      </trkpt>
      <trkpt lat="46.82849" lon="5.85969">
        <ele>667.7</ele>
        <time>2020-02-09T13:30:10Z</time>
      </trkpt>
      <trkpt lat="46.82845" lon="5.85965">
        <ele>671.1</ele>
        <time>2020-02-09T13:30:43Z</time>
      </trkpt>
      <trkpt lat="46.8284" lon="5.85963">
        <ele>672.3</ele>
        <time>2020-02-09T13:30:50Z</time>
      </trkpt>
      <trkpt lat="46.82835" lon="5.85963">
        <ele>673</ele>
        <time>2020-02-09T13:30:55Z</time>
      </trkpt>
      <trkpt lat="46.8283" lon="5.85963">
        <ele>674</ele>
        <time>2020-02-09T13:31:00Z</time>
      </trkpt>
      <trkpt lat="46.82825" lon="5.85964">
        <ele>675.5</ele>
        <time>2020-02-09T13:31:08Z</time>
      </trkpt>
      <trkpt lat="46.82824" lon="5.8597">
        <ele>677.9</ele>
        <time>2020-02-09T13:31:26Z</time>
      </trkpt>
      <trkpt lat="46.82824" lon="5.85977">
        <ele>680.4</ele>
        <time>2020-02-09T13:31:40Z</time>
      </trkpt>
      <trkpt lat="46.82822" lon="5.85983">
        <ele>680.8</ele>
        <time>2020-02-09T13:31:51Z</time>
      </trkpt>
      <trkpt lat="46.82818" lon="5.85986">
        <ele>681.1</ele>
        <time>2020-02-09T13:32:03Z</time>
      </trkpt>
      <trkpt lat="46.8282" lon="5.85993">
        <ele>681</ele>
        <time>2020-02-09T13:32:12Z</time>
      </trkpt>
      <trkpt lat="46.82821" lon="5.85999">
        <ele>681.2</ele>
        <time>2020-02-09T13:32:31Z</time>
      </trkpt>
      <trkpt lat="46.82824" lon="5.86005">
        <ele>687.9</ele>
        <time>2020-02-09T13:43:23Z</time>
      </trkpt>
      <trkpt lat="46.82817" lon="5.86003">
        <ele>690.8</ele>
        <time>2020-02-09T13:47:38Z</time>
      </trkpt>
      <trkpt lat="46.82818" lon="5.85989">
        <ele>688.8</ele>
        <time>2020-02-09T13:48:42Z</time>
      </trkpt>
      <trkpt lat="46.82819" lon="5.85983">
        <ele>686.9</ele>
        <time>2020-02-09T13:48:54Z</time>
      </trkpt>
      <trkpt lat="46.82821" lon="5.85976">
        <ele>685.8</ele>
        <time>2020-02-09T13:48:58Z</time>
      </trkpt>
      <trkpt lat="46.82821" lon="5.85969">
        <ele>684.5</ele>
        <time>2020-02-09T13:49:03Z</time>
      </trkpt>
      <trkpt lat="46.82824" lon="5.85963">
        <ele>683.5</ele>
        <time>2020-02-09T13:49:09Z</time>
      </trkpt>
      <trkpt lat="46.82829" lon="5.85962">
        <ele>682.8</ele>
        <time>2020-02-09T13:49:16Z</time>
      </trkpt>
      <trkpt lat="46.82834" lon="5.85961">
        <ele>682.7</ele>
        <time>2020-02-09T13:49:20Z</time>
      </trkpt>
      <trkpt lat="46.82839" lon="5.8596">
        <ele>682.6</ele>
        <time>2020-02-09T13:49:23Z</time>
      </trkpt>
      <trkpt lat="46.82844" lon="5.85961">
        <ele>682.5</ele>
        <time>2020-02-09T13:49:27Z</time>
      </trkpt>
      <trkpt lat="46.82849" lon="5.85962">
        <ele>682.3</ele>
        <time>2020-02-09T13:49:31Z</time>
      </trkpt>
      <trkpt lat="46.82854" lon="5.85965">
        <ele>682.3</ele>
        <time>2020-02-09T13:49:36Z</time>
      </trkpt>
      <trkpt lat="46.82859" lon="5.85968">
        <ele>682.2</ele>
        <time>2020-02-09T13:49:40Z</time>
      </trkpt>
      <trkpt lat="46.82862" lon="5.85973">
        <ele>682</ele>
        <time>2020-02-09T13:49:45Z</time>
      </trkpt>
      <trkpt lat="46.82867" lon="5.85976">
        <ele>681.7</ele>
        <time>2020-02-09T13:49:52Z</time>
      </trkpt>
      <trkpt lat="46.82872" lon="5.85978">
        <ele>681.5</ele>
        <time>2020-02-09T13:49:58Z</time>
      </trkpt>
      <trkpt lat="46.82877" lon="5.8598">
        <ele>681.4</ele>
        <time>2020-02-09T13:50:04Z</time>
      </trkpt>
      <trkpt lat="46.82881" lon="5.85983">
        <ele>681</ele>
        <time>2020-02-09T13:50:13Z</time>
      </trkpt>
      <trkpt lat="46.82885" lon="5.85986">
        <ele>680.1</ele>
        <time>2020-02-09T13:50:20Z</time>
      </trkpt>
      <trkpt lat="46.82888" lon="5.85991">
        <ele>679.3</ele>
        <time>2020-02-09T13:50:26Z</time>
      </trkpt>
      <trkpt lat="46.82891" lon="5.85997">
        <ele>678.6</ele>
        <time>2020-02-09T13:50:32Z</time>
      </trkpt>
      <trkpt lat="46.82895" lon="5.86">
        <ele>677.5</ele>
        <time>2020-02-09T13:50:38Z</time>
      </trkpt>
      <trkpt lat="46.829" lon="5.85998">
        <ele>676</ele>
        <time>2020-02-09T13:50:46Z</time>
      </trkpt>
      <trkpt lat="46.829" lon="5.8599">
        <ele>674.8</ele>
        <time>2020-02-09T13:50:54Z</time>
      </trkpt>
      <trkpt lat="46.82901" lon="5.85982">
        <ele>673.9</ele>
        <time>2020-02-09T13:51:01Z</time>
      </trkpt>
      <trkpt lat="46.82903" lon="5.85976">
        <ele>673.3</ele>
        <time>2020-02-09T13:51:06Z</time>
      </trkpt>
      <trkpt lat="46.82907" lon="5.85971">
        <ele>671.4</ele>
        <time>2020-02-09T13:51:15Z</time>
      </trkpt>
      <trkpt lat="46.82912" lon="5.85972">
        <ele>670</ele>
        <time>2020-02-09T13:51:21Z</time>
      </trkpt>
      <trkpt lat="46.82915" lon="5.85977">
        <ele>668.1</ele>
        <time>2020-02-09T13:51:29Z</time>
      </trkpt>
      <trkpt lat="46.82919" lon="5.85983">
        <ele>667.1</ele>
        <time>2020-02-09T13:51:34Z</time>
      </trkpt>
      <trkpt lat="46.8292" lon="5.8599">
        <ele>666.3</ele>
        <time>2020-02-09T13:51:40Z</time>
      </trkpt>
      <trkpt lat="46.8292" lon="5.85997">
        <ele>666.1</ele>
        <time>2020-02-09T13:51:48Z</time>
      </trkpt>
      <trkpt lat="46.82919" lon="5.86004">
        <ele>666.1</ele>
        <time>2020-02-09T13:51:53Z</time>
      </trkpt>
      <trkpt lat="46.82915" lon="5.8601">
        <ele>666.1</ele>
        <time>2020-02-09T13:51:59Z</time>
      </trkpt>
      <trkpt lat="46.82912" lon="5.86015">
        <ele>665.8</ele>
        <time>2020-02-09T13:52:07Z</time>
      </trkpt>
      <trkpt lat="46.82909" lon="5.8602">
        <ele>665.1</ele>
        <time>2020-02-09T13:52:13Z</time>
      </trkpt>
      <trkpt lat="46.82904" lon="5.86024">
        <ele>663.8</ele>
        <time>2020-02-09T13:52:19Z</time>
      </trkpt>
      <trkpt lat="46.829" lon="5.86028">
        <ele>662.4</ele>
        <time>2020-02-09T13:52:24Z</time>
      </trkpt>
      <trkpt lat="46.82897" lon="5.86033">
        <ele>661.4</ele>
        <time>2020-02-09T13:52:27Z</time>
      </trkpt>
      <trkpt lat="46.82894" lon="5.86039">
        <ele>659.8</ele>
        <time>2020-02-09T13:52:32Z</time>
      </trkpt>
      <trkpt lat="46.8289" lon="5.86044">
        <ele>658</ele>
        <time>2020-02-09T13:52:38Z</time>
      </trkpt>
      <trkpt lat="46.82885" lon="5.86046">
        <ele>657.2</ele>
        <time>2020-02-09T13:52:41Z</time>
      </trkpt>
      <trkpt lat="46.82878" lon="5.86049">
        <ele>656.3</ele>
        <time>2020-02-09T13:52:45Z</time>
      </trkpt>
      <trkpt lat="46.82874" lon="5.86052">
        <ele>655.4</ele>
        <time>2020-02-09T13:52:49Z</time>
      </trkpt>
      <trkpt lat="46.8287" lon="5.86054">
        <ele>653.9</ele>
        <time>2020-02-09T13:52:56Z</time>
      </trkpt>
      <trkpt lat="46.82861" lon="5.86053">
        <ele>651.8</ele>
        <time>2020-02-09T13:53:08Z</time>
      </trkpt>
      <trkpt lat="46.82856" lon="5.86055">
        <ele>651.1</ele>
        <time>2020-02-09T13:53:19Z</time>
      </trkpt>
      <trkpt lat="46.82856" lon="5.86062">
        <ele>650.8</ele>
        <time>2020-02-09T13:53:42Z</time>
      </trkpt>
      <trkpt lat="46.82859" lon="5.86068">
        <ele>651.3</ele>
        <time>2020-02-09T13:53:53Z</time>
      </trkpt>
      <trkpt lat="46.82861" lon="5.86076">
        <ele>651</ele>
        <time>2020-02-09T13:54:00Z</time>
      </trkpt>
      <trkpt lat="46.82863" lon="5.86081">
        <ele>650.6</ele>
        <time>2020-02-09T13:54:12Z</time>
      </trkpt>
      <trkpt lat="46.82866" lon="5.86089">
        <ele>650.8</ele>
        <time>2020-02-09T13:54:20Z</time>
      </trkpt>
      <trkpt lat="46.82868" lon="5.86095">
        <ele>650.9</ele>
        <time>2020-02-09T13:54:24Z</time>
      </trkpt>
      <trkpt lat="46.82872" lon="5.86106">
        <ele>649.9</ele>
        <time>2020-02-09T13:54:46Z</time>
      </trkpt>
      <trkpt lat="46.82874" lon="5.86112">
        <ele>649.5</ele>
        <time>2020-02-09T13:54:50Z</time>
      </trkpt>
      <trkpt lat="46.82877" lon="5.86118">
        <ele>649.3</ele>
        <time>2020-02-09T13:54:59Z</time>
      </trkpt>
      <trkpt lat="46.82879" lon="5.86125">
        <ele>649.1</ele>
        <time>2020-02-09T13:55:08Z</time>
      </trkpt>
      <trkpt lat="46.82882" lon="5.8613">
        <ele>648.6</ele>
        <time>2020-02-09T13:55:13Z</time>
      </trkpt>
      <trkpt lat="46.82886" lon="5.86135">
        <ele>647.7</ele>
        <time>2020-02-09T13:55:20Z</time>
      </trkpt>
      <trkpt lat="46.82891" lon="5.86142">
        <ele>646.7</ele>
        <time>2020-02-09T13:55:29Z</time>
      </trkpt>
      <trkpt lat="46.82895" lon="5.86147">
        <ele>646.6</ele>
        <time>2020-02-09T13:55:32Z</time>
      </trkpt>
      <trkpt lat="46.82899" lon="5.86151">
        <ele>646.3</ele>
        <time>2020-02-09T13:55:37Z</time>
      </trkpt>
      <trkpt lat="46.82903" lon="5.86156">
        <ele>646.2</ele>
        <time>2020-02-09T13:55:40Z</time>
      </trkpt>
      <trkpt lat="46.82906" lon="5.86161">
        <ele>646</ele>
        <time>2020-02-09T13:55:45Z</time>
      </trkpt>
      <trkpt lat="46.82909" lon="5.86166">
        <ele>645.2</ele>
        <time>2020-02-09T13:55:57Z</time>
      </trkpt>
      <trkpt lat="46.82912" lon="5.86182">
        <ele>644.4</ele>
        <time>2020-02-09T13:56:15Z</time>
      </trkpt>
      <trkpt lat="46.82916" lon="5.86186">
        <ele>644.2</ele>
        <time>2020-02-09T13:56:20Z</time>
      </trkpt>
      <trkpt lat="46.8292" lon="5.86193">
        <ele>643.4</ele>
        <time>2020-02-09T13:56:25Z</time>
      </trkpt>
      <trkpt lat="46.82923" lon="5.86218">
        <ele>638.9</ele>
        <time>2020-02-09T13:56:39Z</time>
      </trkpt>
      <trkpt lat="46.8292" lon="5.86224">
        <ele>637.4</ele>
        <time>2020-02-09T13:56:43Z</time>
      </trkpt>
      <trkpt lat="46.82917" lon="5.86231">
        <ele>635.7</ele>
        <time>2020-02-09T13:56:48Z</time>
      </trkpt>
      <trkpt lat="46.82915" lon="5.86238">
        <ele>634.8</ele>
        <time>2020-02-09T13:56:52Z</time>
      </trkpt>
      <trkpt lat="46.82912" lon="5.86243">
        <ele>633.9</ele>
        <time>2020-02-09T13:56:56Z</time>
      </trkpt>
      <trkpt lat="46.82908" lon="5.86249">
        <ele>632.7</ele>
        <time>2020-02-09T13:57:02Z</time>
      </trkpt>
      <trkpt lat="46.82906" lon="5.86257">
        <ele>631.9</ele>
        <time>2020-02-09T13:57:06Z</time>
      </trkpt>
      <trkpt lat="46.82904" lon="5.86264">
        <ele>631.3</ele>
        <time>2020-02-09T13:57:10Z</time>
      </trkpt>
      <trkpt lat="46.82903" lon="5.86271">
        <ele>630.8</ele>
        <time>2020-02-09T13:57:14Z</time>
      </trkpt>
      <trkpt lat="46.82903" lon="5.86279">
        <ele>630.5</ele>
        <time>2020-02-09T13:57:18Z</time>
      </trkpt>
      <trkpt lat="46.82902" lon="5.86287">
        <ele>630.4</ele>
        <time>2020-02-09T13:57:22Z</time>
      </trkpt>
      <trkpt lat="46.82901" lon="5.86293">
        <ele>630.2</ele>
        <time>2020-02-09T13:57:28Z</time>
      </trkpt>
      <trkpt lat="46.829" lon="5.86301">
        <ele>630</ele>
        <time>2020-02-09T13:57:57Z</time>
      </trkpt>
      <trkpt lat="46.82899" lon="5.86308">
        <ele>629.9</ele>
        <time>2020-02-09T13:58:03Z</time>
      </trkpt>
      <trkpt lat="46.82898" lon="5.86315">
        <ele>629.5</ele>
        <time>2020-02-09T13:58:08Z</time>
      </trkpt>
      <trkpt lat="46.82898" lon="5.86322">
        <ele>629</ele>
        <time>2020-02-09T13:58:14Z</time>
      </trkpt>
      <trkpt lat="46.82898" lon="5.86328">
        <ele>628.5</ele>
        <time>2020-02-09T13:58:19Z</time>
      </trkpt>
      <trkpt lat="46.82897" lon="5.86335">
        <ele>628.3</ele>
        <time>2020-02-09T13:58:25Z</time>
      </trkpt>
      <trkpt lat="46.82899" lon="5.86342">
        <ele>628.2</ele>
        <time>2020-02-09T13:58:39Z</time>
      </trkpt>
      <trkpt lat="46.82904" lon="5.86344">
        <ele>628.2</ele>
        <time>2020-02-09T13:58:43Z</time>
      </trkpt>
      <trkpt lat="46.82903" lon="5.86337">
        <ele>630.9</ele>
        <time>2020-02-09T13:59:16Z</time>
      </trkpt>
      <trkpt lat="46.82903" lon="5.8633">
        <ele>631.5</ele>
        <time>2020-02-09T13:59:23Z</time>
      </trkpt>
      <trkpt lat="46.829" lon="5.86335">
        <ele>633.6</ele>
        <time>2020-02-09T13:59:50Z</time>
      </trkpt>
      <trkpt lat="46.82898" lon="5.86335">
        <ele>631.6</ele>
        <time>2020-02-09T14:02:03Z</time>
      </trkpt>
      <trkpt lat="46.82898" lon="5.86342">
        <ele>630.7</ele>
        <time>2020-02-09T14:02:13Z</time>
      </trkpt>
      <trkpt lat="46.82894" lon="5.86346">
        <ele>630.4</ele>
        <time>2020-02-09T14:02:17Z</time>
      </trkpt>
      <trkpt lat="46.8289" lon="5.86351">
        <ele>630.4</ele>
        <time>2020-02-09T14:02:21Z</time>
      </trkpt>
      <trkpt lat="46.82886" lon="5.86355">
        <ele>630.3</ele>
        <time>2020-02-09T14:02:24Z</time>
      </trkpt>
      <trkpt lat="46.82883" lon="5.86361">
        <ele>630.2</ele>
        <time>2020-02-09T14:02:28Z</time>
      </trkpt>
      <trkpt lat="46.82886" lon="5.86368">
        <ele>630</ele>
        <time>2020-02-09T14:02:34Z</time>
      </trkpt>
      <trkpt lat="46.8289" lon="5.8637">
        <ele>629.8</ele>
        <time>2020-02-09T14:02:38Z</time>
      </trkpt>
      <trkpt lat="46.82895" lon="5.86371">
        <ele>629.1</ele>
        <time>2020-02-09T14:02:43Z</time>
      </trkpt>
      <trkpt lat="46.829" lon="5.86371">
        <ele>628.9</ele>
        <time>2020-02-09T14:02:48Z</time>
      </trkpt>
      <trkpt lat="46.82905" lon="5.86372">
        <ele>628.9</ele>
        <time>2020-02-09T14:02:52Z</time>
      </trkpt>
      <trkpt lat="46.82909" lon="5.86372">
        <ele>629</ele>
        <time>2020-02-09T14:02:57Z</time>
      </trkpt>
      <trkpt lat="46.82914" lon="5.8637">
        <ele>630.6</ele>
        <time>2020-02-09T14:03:49Z</time>
      </trkpt>
      <trkpt lat="46.82919" lon="5.8637">
        <ele>630.8</ele>
        <time>2020-02-09T14:03:53Z</time>
      </trkpt>
      <trkpt lat="46.82924" lon="5.86368">
        <ele>630.9</ele>
        <time>2020-02-09T14:03:56Z</time>
      </trkpt>
      <trkpt lat="46.82929" lon="5.86365">
        <ele>631</ele>
        <time>2020-02-09T14:04:00Z</time>
      </trkpt>
      <trkpt lat="46.82934" lon="5.86364">
        <ele>631.1</ele>
        <time>2020-02-09T14:04:05Z</time>
      </trkpt>
      <trkpt lat="46.82939" lon="5.86365">
        <ele>631.5</ele>
        <time>2020-02-09T14:04:15Z</time>
      </trkpt>
      <trkpt lat="46.82943" lon="5.86368">
        <ele>634.6</ele>
        <time>2020-02-09T14:04:45Z</time>
      </trkpt>
      <trkpt lat="46.82946" lon="5.86373">
        <ele>635</ele>
        <time>2020-02-09T14:04:51Z</time>
      </trkpt>
      <trkpt lat="46.82943" lon="5.8638">
        <ele>635.8</ele>
        <time>2020-02-09T14:05:01Z</time>
      </trkpt>
      <trkpt lat="46.82939" lon="5.86382">
        <ele>635.9</ele>
        <time>2020-02-09T14:05:04Z</time>
      </trkpt>
      <trkpt lat="46.82934" lon="5.86383">
        <ele>636</ele>
        <time>2020-02-09T14:05:07Z</time>
      </trkpt>
      <trkpt lat="46.82929" lon="5.86383">
        <ele>636.1</ele>
        <time>2020-02-09T14:05:11Z</time>
      </trkpt>
      <trkpt lat="46.82924" lon="5.86385">
        <ele>636.3</ele>
        <time>2020-02-09T14:05:17Z</time>
      </trkpt>
      <trkpt lat="46.8292" lon="5.86386">
        <ele>636.4</ele>
        <time>2020-02-09T14:05:21Z</time>
      </trkpt>
      <trkpt lat="46.82914" lon="5.86387">
        <ele>636.6</ele>
        <time>2020-02-09T14:05:25Z</time>
      </trkpt>
      <trkpt lat="46.8291" lon="5.8639">
        <ele>636.9</ele>
        <time>2020-02-09T14:05:30Z</time>
      </trkpt>
      <trkpt lat="46.82906" lon="5.86393">
        <ele>637.2</ele>
        <time>2020-02-09T14:05:34Z</time>
      </trkpt>
      <trkpt lat="46.82901" lon="5.86396">
        <ele>637.6</ele>
        <time>2020-02-09T14:05:38Z</time>
      </trkpt>
      <trkpt lat="46.82896" lon="5.86398">
        <ele>637.8</ele>
        <time>2020-02-09T14:05:41Z</time>
      </trkpt>
      <trkpt lat="46.82891" lon="5.864">
        <ele>637.9</ele>
        <time>2020-02-09T14:05:44Z</time>
      </trkpt>
      <trkpt lat="46.82886" lon="5.86401">
        <ele>638.3</ele>
        <time>2020-02-09T14:05:49Z</time>
      </trkpt>
      <trkpt lat="46.82882" lon="5.86405">
        <ele>638.6</ele>
        <time>2020-02-09T14:05:54Z</time>
      </trkpt>
      <trkpt lat="46.82877" lon="5.86409">
        <ele>639.1</ele>
        <time>2020-02-09T14:05:58Z</time>
      </trkpt>
      <trkpt lat="46.82873" lon="5.86411">
        <ele>639.7</ele>
        <time>2020-02-09T14:06:03Z</time>
      </trkpt>
      <trkpt lat="46.82868" lon="5.86413">
        <ele>640.3</ele>
        <time>2020-02-09T14:06:08Z</time>
      </trkpt>
      <trkpt lat="46.82863" lon="5.86416">
        <ele>640.8</ele>
        <time>2020-02-09T14:06:13Z</time>
      </trkpt>
      <trkpt lat="46.82858" lon="5.86417">
        <ele>641.1</ele>
        <time>2020-02-09T14:06:19Z</time>
      </trkpt>
      <trkpt lat="46.82852" lon="5.86418">
        <ele>641.5</ele>
        <time>2020-02-09T14:06:25Z</time>
      </trkpt>
      <trkpt lat="46.82848" lon="5.86421">
        <ele>641.6</ele>
        <time>2020-02-09T14:06:32Z</time>
      </trkpt>
      <trkpt lat="46.82844" lon="5.86425">
        <ele>641.8</ele>
        <time>2020-02-09T14:06:38Z</time>
      </trkpt>
      <trkpt lat="46.8284" lon="5.86431">
        <ele>642</ele>
        <time>2020-02-09T14:06:44Z</time>
      </trkpt>
      <trkpt lat="46.82839" lon="5.86437">
        <ele>642.3</ele>
        <time>2020-02-09T14:06:51Z</time>
      </trkpt>
      <trkpt lat="46.82835" lon="5.86439">
        <ele>642.7</ele>
        <time>2020-02-09T14:06:59Z</time>
      </trkpt>
      <trkpt lat="46.8283" lon="5.86444">
        <ele>643</ele>
        <time>2020-02-09T14:07:03Z</time>
      </trkpt>
      <trkpt lat="46.82826" lon="5.86448">
        <ele>643.2</ele>
        <time>2020-02-09T14:07:09Z</time>
      </trkpt>
      <trkpt lat="46.82823" lon="5.86454">
        <ele>643.5</ele>
        <time>2020-02-09T14:07:15Z</time>
      </trkpt>
      <trkpt lat="46.8282" lon="5.86459">
        <ele>644</ele>
        <time>2020-02-09T14:07:20Z</time>
      </trkpt>
      <trkpt lat="46.82817" lon="5.86466">
        <ele>644.7</ele>
        <time>2020-02-09T14:07:25Z</time>
      </trkpt>
      <trkpt lat="46.82814" lon="5.86472">
        <ele>645.1</ele>
        <time>2020-02-09T14:07:29Z</time>
      </trkpt>
      <trkpt lat="46.8281" lon="5.86478">
        <ele>645.2</ele>
        <time>2020-02-09T14:07:34Z</time>
      </trkpt>
      <trkpt lat="46.82807" lon="5.86484">
        <ele>645.4</ele>
        <time>2020-02-09T14:07:40Z</time>
      </trkpt>
      <trkpt lat="46.82809" lon="5.8649">
        <ele>645.5</ele>
        <time>2020-02-09T14:07:46Z</time>
      </trkpt>
      <trkpt lat="46.82813" lon="5.86496">
        <ele>645.6</ele>
        <time>2020-02-09T14:07:50Z</time>
      </trkpt>
      <trkpt lat="46.82818" lon="5.865">
        <ele>645.6</ele>
        <time>2020-02-09T14:07:54Z</time>
      </trkpt>
      <trkpt lat="46.82822" lon="5.86505">
        <ele>645.7</ele>
        <time>2020-02-09T14:07:59Z</time>
      </trkpt>
      <trkpt lat="46.82838" lon="5.86531">
        <ele>647</ele>
        <time>2020-02-09T14:08:17Z</time>
      </trkpt>
      <trkpt lat="46.82842" lon="5.86535">
        <ele>647.3</ele>
        <time>2020-02-09T14:08:21Z</time>
      </trkpt>
      <trkpt lat="46.82847" lon="5.86538">
        <ele>647.7</ele>
        <time>2020-02-09T14:08:26Z</time>
      </trkpt>
      <trkpt lat="46.82852" lon="5.8654">
        <ele>648.2</ele>
        <time>2020-02-09T14:08:31Z</time>
      </trkpt>
      <trkpt lat="46.82857" lon="5.86542">
        <ele>648.5</ele>
        <time>2020-02-09T14:08:36Z</time>
      </trkpt>
      <trkpt lat="46.82862" lon="5.86544">
        <ele>649.1</ele>
        <time>2020-02-09T14:08:42Z</time>
      </trkpt>
      <trkpt lat="46.82866" lon="5.86548">
        <ele>649.9</ele>
        <time>2020-02-09T14:08:47Z</time>
      </trkpt>
      <trkpt lat="46.8287" lon="5.86552">
        <ele>650.7</ele>
        <time>2020-02-09T14:08:51Z</time>
      </trkpt>
      <trkpt lat="46.82874" lon="5.86554">
        <ele>651.5</ele>
        <time>2020-02-09T14:08:55Z</time>
      </trkpt>
      <trkpt lat="46.82878" lon="5.86558">
        <ele>652.7</ele>
        <time>2020-02-09T14:09:02Z</time>
      </trkpt>
      <trkpt lat="46.82882" lon="5.86561">
        <ele>653.5</ele>
        <time>2020-02-09T14:09:07Z</time>
      </trkpt>
      <trkpt lat="46.82886" lon="5.86564">
        <ele>654.2</ele>
        <time>2020-02-09T14:09:13Z</time>
      </trkpt>
      <trkpt lat="46.8289" lon="5.86569">
        <ele>654.7</ele>
        <time>2020-02-09T14:09:19Z</time>
      </trkpt>
      <trkpt lat="46.82894" lon="5.86572">
        <ele>655</ele>
        <time>2020-02-09T14:09:24Z</time>
      </trkpt>
      <trkpt lat="46.82898" lon="5.86576">
        <ele>655.4</ele>
        <time>2020-02-09T14:09:29Z</time>
      </trkpt>
      <trkpt lat="46.82901" lon="5.8658">
        <ele>655.7</ele>
        <time>2020-02-09T14:09:33Z</time>
      </trkpt>
      <trkpt lat="46.82905" lon="5.86584">
        <ele>656.6</ele>
        <time>2020-02-09T14:09:43Z</time>
      </trkpt>
      <trkpt lat="46.82909" lon="5.86587">
        <ele>657.8</ele>
        <time>2020-02-09T14:10:00Z</time>
      </trkpt>
      <trkpt lat="46.82914" lon="5.8659">
        <ele>658.1</ele>
        <time>2020-02-09T14:10:05Z</time>
      </trkpt>
      <trkpt lat="46.82918" lon="5.86593">
        <ele>658.7</ele>
        <time>2020-02-09T14:10:10Z</time>
      </trkpt>
      <trkpt lat="46.82923" lon="5.86595">
        <ele>659.4</ele>
        <time>2020-02-09T14:10:14Z</time>
      </trkpt>
      <trkpt lat="46.82928" lon="5.86598">
        <ele>659.9</ele>
        <time>2020-02-09T14:10:18Z</time>
      </trkpt>
      <trkpt lat="46.82933" lon="5.866">
        <ele>660.4</ele>
        <time>2020-02-09T14:10:21Z</time>
      </trkpt>
      <trkpt lat="46.82938" lon="5.86601">
        <ele>661.3</ele>
        <time>2020-02-09T14:10:26Z</time>
      </trkpt>
      <trkpt lat="46.82942" lon="5.86603">
        <ele>662.4</ele>
        <time>2020-02-09T14:10:32Z</time>
      </trkpt>
      <trkpt lat="46.82947" lon="5.86605">
        <ele>663.6</ele>
        <time>2020-02-09T14:10:40Z</time>
      </trkpt>
      <trkpt lat="46.82952" lon="5.86604">
        <ele>663.9</ele>
        <time>2020-02-09T14:10:53Z</time>
      </trkpt>
      <trkpt lat="46.82955" lon="5.86608">
        <ele>664</ele>
        <time>2020-02-09T14:10:58Z</time>
      </trkpt>
      <trkpt lat="46.82961" lon="5.86611">
        <ele>664.5</ele>
        <time>2020-02-09T14:11:03Z</time>
      </trkpt>
      <trkpt lat="46.82965" lon="5.86613">
        <ele>664.9</ele>
        <time>2020-02-09T14:11:06Z</time>
      </trkpt>
      <trkpt lat="46.8297" lon="5.86615">
        <ele>665.5</ele>
        <time>2020-02-09T14:11:10Z</time>
      </trkpt>
      <trkpt lat="46.82973" lon="5.8662">
        <ele>666.2</ele>
        <time>2020-02-09T14:11:23Z</time>
      </trkpt>
      <trkpt lat="46.82978" lon="5.86622">
        <ele>666.6</ele>
        <time>2020-02-09T14:11:31Z</time>
      </trkpt>
      <trkpt lat="46.82983" lon="5.86626">
        <ele>667.4</ele>
        <time>2020-02-09T14:11:37Z</time>
      </trkpt>
      <trkpt lat="46.82987" lon="5.86629">
        <ele>667.8</ele>
        <time>2020-02-09T14:11:41Z</time>
      </trkpt>
      <trkpt lat="46.82991" lon="5.86632">
        <ele>668.2</ele>
        <time>2020-02-09T14:11:46Z</time>
      </trkpt>
      <trkpt lat="46.82996" lon="5.86635">
        <ele>668.6</ele>
        <time>2020-02-09T14:11:52Z</time>
      </trkpt>
      <trkpt lat="46.83" lon="5.86636">
        <ele>669.1</ele>
        <time>2020-02-09T14:11:59Z</time>
      </trkpt>
      <trkpt lat="46.83005" lon="5.86637">
        <ele>670.2</ele>
        <time>2020-02-09T14:12:09Z</time>
      </trkpt>
      <trkpt lat="46.83009" lon="5.86641">
        <ele>671.2</ele>
        <time>2020-02-09T14:12:16Z</time>
      </trkpt>
      <trkpt lat="46.83014" lon="5.86644">
        <ele>671.5</ele>
        <time>2020-02-09T14:12:21Z</time>
      </trkpt>
      <trkpt lat="46.83019" lon="5.86648">
        <ele>671.5</ele>
        <time>2020-02-09T14:12:25Z</time>
      </trkpt>
      <trkpt lat="46.83024" lon="5.8665">
        <ele>671.3</ele>
        <time>2020-02-09T14:12:29Z</time>
      </trkpt>
      <trkpt lat="46.83029" lon="5.86654">
        <ele>671.2</ele>
        <time>2020-02-09T14:12:34Z</time>
      </trkpt>
      <trkpt lat="46.83033" lon="5.86659">
        <ele>671.2</ele>
        <time>2020-02-09T14:12:38Z</time>
      </trkpt>
      <trkpt lat="46.83036" lon="5.86665">
        <ele>671</ele>
        <time>2020-02-09T14:12:44Z</time>
      </trkpt>
      <trkpt lat="46.8304" lon="5.86668">
        <ele>671</ele>
        <time>2020-02-09T14:12:49Z</time>
      </trkpt>
      <trkpt lat="46.83044" lon="5.86673">
        <ele>670.7</ele>
        <time>2020-02-09T14:12:54Z</time>
      </trkpt>
      <trkpt lat="46.83049" lon="5.86677">
        <ele>670.4</ele>
        <time>2020-02-09T14:12:59Z</time>
      </trkpt>
      <trkpt lat="46.83053" lon="5.86682">
        <ele>669.9</ele>
        <time>2020-02-09T14:13:04Z</time>
      </trkpt>
      <trkpt lat="46.83056" lon="5.86685">
        <ele>669.4</ele>
        <time>2020-02-09T14:13:08Z</time>
      </trkpt>
      <trkpt lat="46.83061" lon="5.86689">
        <ele>668.9</ele>
        <time>2020-02-09T14:13:13Z</time>
      </trkpt>
      <trkpt lat="46.83065" lon="5.86694">
        <ele>668.4</ele>
        <time>2020-02-09T14:13:17Z</time>
      </trkpt>
      <trkpt lat="46.83069" lon="5.86698">
        <ele>667.8</ele>
        <time>2020-02-09T14:13:24Z</time>
      </trkpt>
      <trkpt lat="46.83073" lon="5.86701">
        <ele>668</ele>
        <time>2020-02-09T14:13:31Z</time>
      </trkpt>
      <trkpt lat="46.83078" lon="5.86703">
        <ele>668.7</ele>
        <time>2020-02-09T14:13:54Z</time>
      </trkpt>
      <trkpt lat="46.83082" lon="5.86707">
        <ele>668.5</ele>
        <time>2020-02-09T14:13:59Z</time>
      </trkpt>
      <trkpt lat="46.83086" lon="5.8671">
        <ele>668.4</ele>
        <time>2020-02-09T14:14:05Z</time>
      </trkpt>
      <trkpt lat="46.83089" lon="5.86716">
        <ele>668.2</ele>
        <time>2020-02-09T14:14:10Z</time>
      </trkpt>
      <trkpt lat="46.83094" lon="5.86717">
        <ele>665.3</ele>
        <time>2020-02-09T14:14:58Z</time>
      </trkpt>
      <trkpt lat="46.83098" lon="5.86719">
        <ele>664.9</ele>
        <time>2020-02-09T14:15:04Z</time>
      </trkpt>
      <trkpt lat="46.83102" lon="5.86723">
        <ele>664.6</ele>
        <time>2020-02-09T14:15:08Z</time>
      </trkpt>
      <trkpt lat="46.83107" lon="5.86726">
        <ele>664.5</ele>
        <time>2020-02-09T14:15:13Z</time>
      </trkpt>
      <trkpt lat="46.83107" lon="5.86733">
        <ele>664.5</ele>
        <time>2020-02-09T14:15:21Z</time>
      </trkpt>
      <trkpt lat="46.83109" lon="5.86739">
        <ele>664.4</ele>
        <time>2020-02-09T14:15:33Z</time>
      </trkpt>
      <trkpt lat="46.83114" lon="5.86742">
        <ele>664</ele>
        <time>2020-02-09T14:15:39Z</time>
      </trkpt>
      <trkpt lat="46.83118" lon="5.86744">
        <ele>664</ele>
        <time>2020-02-09T14:15:48Z</time>
      </trkpt>
      <trkpt lat="46.83123" lon="5.86745">
        <ele>664.1</ele>
        <time>2020-02-09T14:15:59Z</time>
      </trkpt>
      <trkpt lat="46.83126" lon="5.8675">
        <ele>664.1</ele>
        <time>2020-02-09T14:16:04Z</time>
      </trkpt>
      <trkpt lat="46.8313" lon="5.86755">
        <ele>664.7</ele>
        <time>2020-02-09T14:16:27Z</time>
      </trkpt>
      <trkpt lat="46.83135" lon="5.86756">
        <ele>663.9</ele>
        <time>2020-02-09T14:16:34Z</time>
      </trkpt>
      <trkpt lat="46.83139" lon="5.86759">
        <ele>663.4</ele>
        <time>2020-02-09T14:16:39Z</time>
      </trkpt>
      <trkpt lat="46.83142" lon="5.86763">
        <ele>663.2</ele>
        <time>2020-02-09T14:16:44Z</time>
      </trkpt>
      <trkpt lat="46.83146" lon="5.86767">
        <ele>663.1</ele>
        <time>2020-02-09T14:16:49Z</time>
      </trkpt>
      <trkpt lat="46.83151" lon="5.86769">
        <ele>663</ele>
        <time>2020-02-09T14:16:55Z</time>
      </trkpt>
      <trkpt lat="46.83156" lon="5.86771">
        <ele>663.1</ele>
        <time>2020-02-09T14:17:02Z</time>
      </trkpt>
      <trkpt lat="46.83161" lon="5.86774">
        <ele>663.4</ele>
        <time>2020-02-09T14:17:08Z</time>
      </trkpt>
      <trkpt lat="46.83164" lon="5.8678">
        <ele>664</ele>
        <time>2020-02-09T14:17:14Z</time>
      </trkpt>
      <trkpt lat="46.83164" lon="5.86786">
        <ele>665</ele>
        <time>2020-02-09T14:17:28Z</time>
      </trkpt>
      <trkpt lat="46.83161" lon="5.86791">
        <ele>665.3</ele>
        <time>2020-02-09T14:17:34Z</time>
      </trkpt>
      <trkpt lat="46.83158" lon="5.86796">
        <ele>666.1</ele>
        <time>2020-02-09T14:17:44Z</time>
      </trkpt>
      <trkpt lat="46.83152" lon="5.86796">
        <ele>666.1</ele>
        <time>2020-02-09T14:17:50Z</time>
      </trkpt>
      <trkpt lat="46.83147" lon="5.86796">
        <ele>666</ele>
        <time>2020-02-09T14:17:52Z</time>
      </trkpt>
      <trkpt lat="46.83141" lon="5.86796">
        <ele>666</ele>
        <time>2020-02-09T14:17:55Z</time>
      </trkpt>
      <trkpt lat="46.83137" lon="5.86797">
        <ele>665.7</ele>
        <time>2020-02-09T14:17:59Z</time>
      </trkpt>
      <trkpt lat="46.83132" lon="5.86801">
        <ele>665.3</ele>
        <time>2020-02-09T14:18:03Z</time>
      </trkpt>
      <trkpt lat="46.83128" lon="5.868">
        <ele>664.6</ele>
        <time>2020-02-09T14:18:09Z</time>
      </trkpt>
      <trkpt lat="46.83123" lon="5.86798">
        <ele>663.8</ele>
        <time>2020-02-09T14:18:14Z</time>
      </trkpt>
      <trkpt lat="46.83118" lon="5.86797">
        <ele>662.9</ele>
        <time>2020-02-09T14:18:20Z</time>
      </trkpt>
      <trkpt lat="46.83113" lon="5.86796">
        <ele>662</ele>
        <time>2020-02-09T14:18:27Z</time>
      </trkpt>
      <trkpt lat="46.83108" lon="5.86797">
        <ele>661.5</ele>
        <time>2020-02-09T14:18:33Z</time>
      </trkpt>
      <trkpt lat="46.83104" lon="5.86796">
        <ele>661</ele>
        <time>2020-02-09T14:18:41Z</time>
      </trkpt>
      <trkpt lat="46.831" lon="5.86789">
        <ele>661</ele>
        <time>2020-02-09T14:18:59Z</time>
      </trkpt>
      <trkpt lat="46.83096" lon="5.86785">
        <ele>661.1</ele>
        <time>2020-02-09T14:19:03Z</time>
      </trkpt>
      <trkpt lat="46.83091" lon="5.86782">
        <ele>661.4</ele>
        <time>2020-02-09T14:19:08Z</time>
      </trkpt>
      <trkpt lat="46.83087" lon="5.86778">
        <ele>661.9</ele>
        <time>2020-02-09T14:19:13Z</time>
      </trkpt>
      <trkpt lat="46.83083" lon="5.86774">
        <ele>662.3</ele>
        <time>2020-02-09T14:19:19Z</time>
      </trkpt>
      <trkpt lat="46.83079" lon="5.86771">
        <ele>662.7</ele>
        <time>2020-02-09T14:19:24Z</time>
      </trkpt>
      <trkpt lat="46.83074" lon="5.86768">
        <ele>663.4</ele>
        <time>2020-02-09T14:19:29Z</time>
      </trkpt>
      <trkpt lat="46.8307" lon="5.86763">
        <ele>664.3</ele>
        <time>2020-02-09T14:19:35Z</time>
      </trkpt>
      <trkpt lat="46.83066" lon="5.86758">
        <ele>665.6</ele>
        <time>2020-02-09T14:19:45Z</time>
      </trkpt>
      <trkpt lat="46.83064" lon="5.86752">
        <ele>666.1</ele>
        <time>2020-02-09T14:19:49Z</time>
      </trkpt>
      <trkpt lat="46.83058" lon="5.86744">
        <ele>669</ele>
        <time>2020-02-09T14:20:16Z</time>
      </trkpt>
      <trkpt lat="46.83057" lon="5.86736">
        <ele>670.9</ele>
        <time>2020-02-09T14:20:32Z</time>
      </trkpt>
      <trkpt lat="46.83058" lon="5.86728">
        <ele>672.5</ele>
        <time>2020-02-09T14:20:39Z</time>
      </trkpt>
      <trkpt lat="46.83059" lon="5.86721">
        <ele>673.1</ele>
        <time>2020-02-09T14:20:42Z</time>
      </trkpt>
      <trkpt lat="46.8306" lon="5.86715">
        <ele>673.5</ele>
        <time>2020-02-09T14:20:52Z</time>
      </trkpt>
      <trkpt lat="46.83063" lon="5.86709">
        <ele>673</ele>
        <time>2020-02-09T14:20:59Z</time>
      </trkpt>
      <trkpt lat="46.83066" lon="5.86704">
        <ele>672.2</ele>
        <time>2020-02-09T14:21:05Z</time>
      </trkpt>
      <trkpt lat="46.83071" lon="5.86705">
        <ele>670.4</ele>
        <time>2020-02-09T14:21:16Z</time>
      </trkpt>
      <trkpt lat="46.83074" lon="5.86709">
        <ele>670</ele>
        <time>2020-02-09T14:21:21Z</time>
      </trkpt>
      <trkpt lat="46.83078" lon="5.86714">
        <ele>669.9</ele>
        <time>2020-02-09T14:21:26Z</time>
      </trkpt>
      <trkpt lat="46.83083" lon="5.86719">
        <ele>669.9</ele>
        <time>2020-02-09T14:21:32Z</time>
      </trkpt>
      <trkpt lat="46.83088" lon="5.86722">
        <ele>670.2</ele>
        <time>2020-02-09T14:21:36Z</time>
      </trkpt>
      <trkpt lat="46.83092" lon="5.86725">
        <ele>670.9</ele>
        <time>2020-02-09T14:21:43Z</time>
      </trkpt>
      <trkpt lat="46.83097" lon="5.86727">
        <ele>671.2</ele>
        <time>2020-02-09T14:21:47Z</time>
      </trkpt>
      <trkpt lat="46.83101" lon="5.8673">
        <ele>671.7</ele>
        <time>2020-02-09T14:21:54Z</time>
      </trkpt>
      <trkpt lat="46.83105" lon="5.86734">
        <ele>671.5</ele>
        <time>2020-02-09T14:22:08Z</time>
      </trkpt>
      <trkpt lat="46.83109" lon="5.86738">
        <ele>671</ele>
        <time>2020-02-09T14:22:13Z</time>
      </trkpt>
      <trkpt lat="46.83114" lon="5.8674">
        <ele>670.9</ele>
        <time>2020-02-09T14:22:18Z</time>
      </trkpt>
      <trkpt lat="46.83118" lon="5.86742">
        <ele>669.3</ele>
        <time>2020-02-09T14:22:34Z</time>
      </trkpt>
      <trkpt lat="46.83125" lon="5.86747">
        <ele>666.3</ele>
        <time>2020-02-09T14:23:35Z</time>
      </trkpt>
      <trkpt lat="46.83129" lon="5.86751">
        <ele>665.9</ele>
        <time>2020-02-09T14:23:40Z</time>
      </trkpt>
      <trkpt lat="46.83134" lon="5.86755">
        <ele>665.4</ele>
        <time>2020-02-09T14:23:50Z</time>
      </trkpt>
      <trkpt lat="46.83137" lon="5.86759">
        <ele>665.5</ele>
        <time>2020-02-09T14:23:53Z</time>
      </trkpt>
      <trkpt lat="46.83142" lon="5.86763">
        <ele>665.7</ele>
        <time>2020-02-09T14:23:57Z</time>
      </trkpt>
      <trkpt lat="46.83147" lon="5.86765">
        <ele>666.3</ele>
        <time>2020-02-09T14:24:03Z</time>
      </trkpt>
      <trkpt lat="46.83152" lon="5.8677">
        <ele>667.4</ele>
        <time>2020-02-09T14:24:13Z</time>
      </trkpt>
      <trkpt lat="46.83156" lon="5.86774">
        <ele>667.7</ele>
        <time>2020-02-09T14:24:18Z</time>
      </trkpt>
      <trkpt lat="46.83158" lon="5.86781">
        <ele>667.8</ele>
        <time>2020-02-09T14:24:24Z</time>
      </trkpt>
      <trkpt lat="46.83161" lon="5.86786">
        <ele>669.1</ele>
        <time>2020-02-09T14:24:37Z</time>
      </trkpt>
      <trkpt lat="46.83164" lon="5.86792">
        <ele>669.4</ele>
        <time>2020-02-09T14:24:42Z</time>
      </trkpt>
      <trkpt lat="46.83169" lon="5.86797">
        <ele>669.7</ele>
        <time>2020-02-09T14:24:47Z</time>
      </trkpt>
      <trkpt lat="46.83173" lon="5.868">
        <ele>670</ele>
        <time>2020-02-09T14:24:50Z</time>
      </trkpt>
      <trkpt lat="46.83177" lon="5.86803">
        <ele>670.2</ele>
        <time>2020-02-09T14:24:53Z</time>
      </trkpt>
      <trkpt lat="46.83181" lon="5.86807">
        <ele>670.7</ele>
        <time>2020-02-09T14:24:59Z</time>
      </trkpt>
      <trkpt lat="46.83191" lon="5.86818">
        <ele>672.2</ele>
        <time>2020-02-09T14:25:11Z</time>
      </trkpt>
      <trkpt lat="46.83201" lon="5.8682">
        <ele>673.1</ele>
        <time>2020-02-09T14:25:28Z</time>
      </trkpt>
      <trkpt lat="46.83208" lon="5.86826">
        <ele>672.7</ele>
        <time>2020-02-09T14:25:40Z</time>
      </trkpt>
      <trkpt lat="46.83212" lon="5.8683">
        <ele>672.8</ele>
        <time>2020-02-09T14:25:47Z</time>
      </trkpt>
      <trkpt lat="46.83215" lon="5.86834">
        <ele>672.8</ele>
        <time>2020-02-09T14:25:51Z</time>
      </trkpt>
      <trkpt lat="46.83217" lon="5.8684">
        <ele>672.8</ele>
        <time>2020-02-09T14:25:56Z</time>
      </trkpt>
      <trkpt lat="46.83221" lon="5.86846">
        <ele>672.9</ele>
        <time>2020-02-09T14:26:01Z</time>
      </trkpt>
      <trkpt lat="46.83225" lon="5.8685">
        <ele>672.8</ele>
        <time>2020-02-09T14:26:06Z</time>
      </trkpt>
      <trkpt lat="46.83233" lon="5.86855">
        <ele>673.3</ele>
        <time>2020-02-09T14:26:21Z</time>
      </trkpt>
      <trkpt lat="46.83236" lon="5.86859">
        <ele>674.3</ele>
        <time>2020-02-09T14:26:32Z</time>
      </trkpt>
      <trkpt lat="46.83241" lon="5.86862">
        <ele>674.3</ele>
        <time>2020-02-09T14:26:39Z</time>
      </trkpt>
      <trkpt lat="46.83247" lon="5.86865">
        <ele>674.2</ele>
        <time>2020-02-09T14:26:42Z</time>
      </trkpt>
      <trkpt lat="46.83252" lon="5.86867">
        <ele>674.1</ele>
        <time>2020-02-09T14:26:45Z</time>
      </trkpt>
      <trkpt lat="46.83256" lon="5.8687">
        <ele>674</ele>
        <time>2020-02-09T14:26:49Z</time>
      </trkpt>
      <trkpt lat="46.8326" lon="5.86873">
        <ele>673.8</ele>
        <time>2020-02-09T14:26:54Z</time>
      </trkpt>
      <trkpt lat="46.8327" lon="5.86884">
        <ele>671</ele>
        <time>2020-02-09T14:27:15Z</time>
      </trkpt>
      <trkpt lat="46.83286" lon="5.86912">
        <ele>664.6</ele>
        <time>2020-02-09T14:27:55Z</time>
      </trkpt>
      <trkpt lat="46.83291" lon="5.86914">
        <ele>664.1</ele>
        <time>2020-02-09T14:28:02Z</time>
      </trkpt>
      <trkpt lat="46.83311" lon="5.8692">
        <ele>657</ele>
        <time>2020-02-09T14:28:38Z</time>
      </trkpt>
      <trkpt lat="46.8332" lon="5.86929">
        <ele>655.7</ele>
        <time>2020-02-09T14:28:49Z</time>
      </trkpt>
      <trkpt lat="46.83325" lon="5.86932">
        <ele>655.7</ele>
        <time>2020-02-09T14:28:54Z</time>
      </trkpt>
      <trkpt lat="46.83329" lon="5.86934">
        <ele>655.8</ele>
        <time>2020-02-09T14:28:58Z</time>
      </trkpt>
      <trkpt lat="46.83334" lon="5.86938">
        <ele>655.8</ele>
        <time>2020-02-09T14:29:04Z</time>
      </trkpt>
      <trkpt lat="46.83339" lon="5.86941">
        <ele>655.4</ele>
        <time>2020-02-09T14:29:11Z</time>
      </trkpt>
      <trkpt lat="46.83343" lon="5.86944">
        <ele>655</ele>
        <time>2020-02-09T14:29:17Z</time>
      </trkpt>
      <trkpt lat="46.83347" lon="5.86947">
        <ele>654.9</ele>
        <time>2020-02-09T14:29:21Z</time>
      </trkpt>
      <trkpt lat="46.83351" lon="5.8695">
        <ele>654.8</ele>
        <time>2020-02-09T14:29:26Z</time>
      </trkpt>
      <trkpt lat="46.83355" lon="5.86966">
        <ele>654.1</ele>
        <time>2020-02-09T14:29:44Z</time>
      </trkpt>
      <trkpt lat="46.83357" lon="5.86972">
        <ele>653.9</ele>
        <time>2020-02-09T14:29:53Z</time>
      </trkpt>
      <trkpt lat="46.83362" lon="5.86972">
        <ele>655.5</ele>
        <time>2020-02-09T14:30:31Z</time>
      </trkpt>
      <trkpt lat="46.83368" lon="5.86973">
        <ele>657</ele>
        <time>2020-02-09T14:30:37Z</time>
      </trkpt>
      <trkpt lat="46.83372" lon="5.86973">
        <ele>659.6</ele>
        <time>2020-02-09T14:30:49Z</time>
      </trkpt>
      <trkpt lat="46.83377" lon="5.86974">
        <ele>661.7</ele>
        <time>2020-02-09T14:30:56Z</time>
      </trkpt>
      <trkpt lat="46.83383" lon="5.86976">
        <ele>662.8</ele>
        <time>2020-02-09T14:31:01Z</time>
      </trkpt>
      <trkpt lat="46.83388" lon="5.86977">
        <ele>664</ele>
        <time>2020-02-09T14:31:13Z</time>
      </trkpt>
      <trkpt lat="46.83394" lon="5.86977">
        <ele>664.2</ele>
        <time>2020-02-09T14:31:17Z</time>
      </trkpt>
      <trkpt lat="46.83399" lon="5.86977">
        <ele>665.5</ele>
        <time>2020-02-09T14:31:26Z</time>
      </trkpt>
      <trkpt lat="46.83404" lon="5.86978">
        <ele>666.3</ele>
        <time>2020-02-09T14:31:30Z</time>
      </trkpt>
      <trkpt lat="46.83409" lon="5.8698">
        <ele>666.6</ele>
        <time>2020-02-09T14:31:33Z</time>
      </trkpt>
      <trkpt lat="46.83414" lon="5.86982">
        <ele>666.9</ele>
        <time>2020-02-09T14:31:36Z</time>
      </trkpt>
      <trkpt lat="46.83427" lon="5.86982">
        <ele>667.9</ele>
        <time>2020-02-09T14:31:47Z</time>
      </trkpt>
      <trkpt lat="46.83432" lon="5.86983">
        <ele>668</ele>
        <time>2020-02-09T14:31:50Z</time>
      </trkpt>
      <trkpt lat="46.83437" lon="5.86985">
        <ele>668</ele>
        <time>2020-02-09T14:31:53Z</time>
      </trkpt>
      <trkpt lat="46.83441" lon="5.86988">
        <ele>668</ele>
        <time>2020-02-09T14:31:56Z</time>
      </trkpt>
      <trkpt lat="46.83445" lon="5.86992">
        <ele>668</ele>
        <time>2020-02-09T14:31:59Z</time>
      </trkpt>
      <trkpt lat="46.83449" lon="5.86997">
        <ele>667.8</ele>
        <time>2020-02-09T14:32:03Z</time>
      </trkpt>
      <trkpt lat="46.83454" lon="5.87001">
        <ele>667.3</ele>
        <time>2020-02-09T14:32:07Z</time>
      </trkpt>
      <trkpt lat="46.83458" lon="5.87005">
        <ele>667.1</ele>
        <time>2020-02-09T14:32:10Z</time>
      </trkpt>
      <trkpt lat="46.83463" lon="5.87007">
        <ele>667</ele>
        <time>2020-02-09T14:32:14Z</time>
      </trkpt>
      <trkpt lat="46.83466" lon="5.87013">
        <ele>667.4</ele>
        <time>2020-02-09T14:32:25Z</time>
      </trkpt>
      <trkpt lat="46.83468" lon="5.87019">
        <ele>667.2</ele>
        <time>2020-02-09T14:32:30Z</time>
      </trkpt>
      <trkpt lat="46.83471" lon="5.87024">
        <ele>667.3</ele>
        <time>2020-02-09T14:32:34Z</time>
      </trkpt>
      <trkpt lat="46.83475" lon="5.87031">
        <ele>667.4</ele>
        <time>2020-02-09T14:32:38Z</time>
      </trkpt>
      <trkpt lat="46.83477" lon="5.87037">
        <ele>667.6</ele>
        <time>2020-02-09T14:32:41Z</time>
      </trkpt>
      <trkpt lat="46.8348" lon="5.87043">
        <ele>668</ele>
        <time>2020-02-09T14:32:45Z</time>
      </trkpt>
      <trkpt lat="46.83484" lon="5.87048">
        <ele>668.3</ele>
        <time>2020-02-09T14:32:50Z</time>
      </trkpt>
      <trkpt lat="46.83488" lon="5.87052">
        <ele>668.6</ele>
        <time>2020-02-09T14:32:54Z</time>
      </trkpt>
      <trkpt lat="46.83492" lon="5.87057">
        <ele>668.3</ele>
        <time>2020-02-09T14:33:00Z</time>
      </trkpt>
      <trkpt lat="46.83495" lon="5.87061">
        <ele>668.1</ele>
        <time>2020-02-09T14:33:06Z</time>
      </trkpt>
      <trkpt lat="46.83499" lon="5.87067">
        <ele>667.7</ele>
        <time>2020-02-09T14:33:13Z</time>
      </trkpt>
      <trkpt lat="46.83502" lon="5.87073">
        <ele>666.9</ele>
        <time>2020-02-09T14:33:19Z</time>
      </trkpt>
      <trkpt lat="46.83505" lon="5.87079">
        <ele>666.1</ele>
        <time>2020-02-09T14:33:24Z</time>
      </trkpt>
      <trkpt lat="46.83508" lon="5.87084">
        <ele>665.9</ele>
        <time>2020-02-09T14:33:28Z</time>
      </trkpt>
      <trkpt lat="46.83512" lon="5.87088">
        <ele>665.9</ele>
        <time>2020-02-09T14:33:39Z</time>
      </trkpt>
      <trkpt lat="46.83516" lon="5.87093">
        <ele>666.3</ele>
        <time>2020-02-09T14:33:46Z</time>
      </trkpt>
      <trkpt lat="46.8352" lon="5.87097">
        <ele>666.4</ele>
        <time>2020-02-09T14:33:52Z</time>
      </trkpt>
      <trkpt lat="46.83523" lon="5.87103">
        <ele>666.1</ele>
        <time>2020-02-09T14:33:58Z</time>
      </trkpt>
      <trkpt lat="46.83526" lon="5.87109">
        <ele>665.7</ele>
        <time>2020-02-09T14:34:03Z</time>
      </trkpt>
      <trkpt lat="46.83529" lon="5.87115">
        <ele>665.4</ele>
        <time>2020-02-09T14:34:08Z</time>
      </trkpt>
      <trkpt lat="46.83532" lon="5.87121">
        <ele>665</ele>
        <time>2020-02-09T14:34:13Z</time>
      </trkpt>
      <trkpt lat="46.83534" lon="5.87128">
        <ele>664.5</ele>
        <time>2020-02-09T14:34:16Z</time>
      </trkpt>
      <trkpt lat="46.83537" lon="5.87134">
        <ele>664</ele>
        <time>2020-02-09T14:34:19Z</time>
      </trkpt>
      <trkpt lat="46.8354" lon="5.87139">
        <ele>663.6</ele>
        <time>2020-02-09T14:34:22Z</time>
      </trkpt>
      <trkpt lat="46.83543" lon="5.87144">
        <ele>663.2</ele>
        <time>2020-02-09T14:34:26Z</time>
      </trkpt>
      <trkpt lat="46.83547" lon="5.87149">
        <ele>662.8</ele>
        <time>2020-02-09T14:34:31Z</time>
      </trkpt>
      <trkpt lat="46.83551" lon="5.87153">
        <ele>662.7</ele>
        <time>2020-02-09T14:34:35Z</time>
      </trkpt>
      <trkpt lat="46.83557" lon="5.87156">
        <ele>662.9</ele>
        <time>2020-02-09T14:34:39Z</time>
      </trkpt>
      <trkpt lat="46.8356" lon="5.8716">
        <ele>663.1</ele>
        <time>2020-02-09T14:34:42Z</time>
      </trkpt>
      <trkpt lat="46.83563" lon="5.87167">
        <ele>663.5</ele>
        <time>2020-02-09T14:34:46Z</time>
      </trkpt>
      <trkpt lat="46.83566" lon="5.87174">
        <ele>663.8</ele>
        <time>2020-02-09T14:34:50Z</time>
      </trkpt>
      <trkpt lat="46.83568" lon="5.8718">
        <ele>663.9</ele>
        <time>2020-02-09T14:34:54Z</time>
      </trkpt>
      <trkpt lat="46.83572" lon="5.87186">
        <ele>664</ele>
        <time>2020-02-09T14:34:59Z</time>
      </trkpt>
      <trkpt lat="46.83574" lon="5.87192">
        <ele>663.8</ele>
        <time>2020-02-09T14:35:05Z</time>
      </trkpt>
      <trkpt lat="46.83577" lon="5.87198">
        <ele>663.6</ele>
        <time>2020-02-09T14:35:11Z</time>
      </trkpt>
      <trkpt lat="46.8358" lon="5.87205">
        <ele>662.9</ele>
        <time>2020-02-09T14:35:16Z</time>
      </trkpt>
      <trkpt lat="46.83581" lon="5.87212">
        <ele>661.8</ele>
        <time>2020-02-09T14:35:23Z</time>
      </trkpt>
      <trkpt lat="46.83581" lon="5.8722">
        <ele>661</ele>
        <time>2020-02-09T14:35:28Z</time>
      </trkpt>
      <trkpt lat="46.83583" lon="5.87227">
        <ele>660.6</ele>
        <time>2020-02-09T14:35:32Z</time>
      </trkpt>
      <trkpt lat="46.83586" lon="5.87233">
        <ele>660.2</ele>
        <time>2020-02-09T14:35:36Z</time>
      </trkpt>
      <trkpt lat="46.83591" lon="5.87238">
        <ele>659.6</ele>
        <time>2020-02-09T14:35:40Z</time>
      </trkpt>
      <trkpt lat="46.83594" lon="5.87243">
        <ele>658.8</ele>
        <time>2020-02-09T14:35:45Z</time>
      </trkpt>
      <trkpt lat="46.83598" lon="5.87247">
        <ele>658.3</ele>
        <time>2020-02-09T14:35:49Z</time>
      </trkpt>
      <trkpt lat="46.83602" lon="5.87252">
        <ele>657.9</ele>
        <time>2020-02-09T14:35:54Z</time>
      </trkpt>
      <trkpt lat="46.83607" lon="5.87254">
        <ele>657.8</ele>
        <time>2020-02-09T14:35:59Z</time>
      </trkpt>
      <trkpt lat="46.83611" lon="5.87259">
        <ele>657.8</ele>
        <time>2020-02-09T14:36:05Z</time>
      </trkpt>
      <trkpt lat="46.83616" lon="5.87264">
        <ele>657.5</ele>
        <time>2020-02-09T14:36:11Z</time>
      </trkpt>
      <trkpt lat="46.8362" lon="5.87269">
        <ele>657.1</ele>
        <time>2020-02-09T14:36:15Z</time>
      </trkpt>
      <trkpt lat="46.83623" lon="5.87274">
        <ele>656.7</ele>
        <time>2020-02-09T14:36:19Z</time>
      </trkpt>
      <trkpt lat="46.83628" lon="5.87279">
        <ele>656</ele>
        <time>2020-02-09T14:36:25Z</time>
      </trkpt>
      <trkpt lat="46.83631" lon="5.87284">
        <ele>655.8</ele>
        <time>2020-02-09T14:36:29Z</time>
      </trkpt>
      <trkpt lat="46.83635" lon="5.87289">
        <ele>655.9</ele>
        <time>2020-02-09T14:36:33Z</time>
      </trkpt>
      <trkpt lat="46.83638" lon="5.87294">
        <ele>656</ele>
        <time>2020-02-09T14:36:38Z</time>
      </trkpt>
      <trkpt lat="46.83642" lon="5.87299">
        <ele>656</ele>
        <time>2020-02-09T14:36:43Z</time>
      </trkpt>
      <trkpt lat="46.83646" lon="5.87303">
        <ele>655</ele>
        <time>2020-02-09T14:36:49Z</time>
      </trkpt>
      <trkpt lat="46.8365" lon="5.87308">
        <ele>653.6</ele>
        <time>2020-02-09T14:36:54Z</time>
      </trkpt>
      <trkpt lat="46.83654" lon="5.87313">
        <ele>652.5</ele>
        <time>2020-02-09T14:36:58Z</time>
      </trkpt>
      <trkpt lat="46.83658" lon="5.87319">
        <ele>651.3</ele>
        <time>2020-02-09T14:37:03Z</time>
      </trkpt>
      <trkpt lat="46.83662" lon="5.87324">
        <ele>650.4</ele>
        <time>2020-02-09T14:37:08Z</time>
      </trkpt>
      <trkpt lat="46.83667" lon="5.87329">
        <ele>649.6</ele>
        <time>2020-02-09T14:37:13Z</time>
      </trkpt>
      <trkpt lat="46.8367" lon="5.87335">
        <ele>648.8</ele>
        <time>2020-02-09T14:37:18Z</time>
      </trkpt>
      <trkpt lat="46.83675" lon="5.8734">
        <ele>648.4</ele>
        <time>2020-02-09T14:37:22Z</time>
      </trkpt>
      <trkpt lat="46.8368" lon="5.87343">
        <ele>647.9</ele>
        <time>2020-02-09T14:37:27Z</time>
      </trkpt>
      <trkpt lat="46.83684" lon="5.87347">
        <ele>647.4</ele>
        <time>2020-02-09T14:37:31Z</time>
      </trkpt>
      <trkpt lat="46.83687" lon="5.87354">
        <ele>646.8</ele>
        <time>2020-02-09T14:37:36Z</time>
      </trkpt>
      <trkpt lat="46.8369" lon="5.87359">
        <ele>646.7</ele>
        <time>2020-02-09T14:37:40Z</time>
      </trkpt>
      <trkpt lat="46.83693" lon="5.87366">
        <ele>646.9</ele>
        <time>2020-02-09T14:37:45Z</time>
      </trkpt>
      <trkpt lat="46.83697" lon="5.87371">
        <ele>646.9</ele>
        <time>2020-02-09T14:37:52Z</time>
      </trkpt>
      <trkpt lat="46.837" lon="5.87376">
        <ele>646.8</ele>
        <time>2020-02-09T14:37:57Z</time>
      </trkpt>
      <trkpt lat="46.83704" lon="5.8738">
        <ele>646.8</ele>
        <time>2020-02-09T14:38:00Z</time>
      </trkpt>
      <trkpt lat="46.83707" lon="5.87386">
        <ele>646.7</ele>
        <time>2020-02-09T14:38:06Z</time>
      </trkpt>
      <trkpt lat="46.83709" lon="5.87393">
        <ele>647.1</ele>
        <time>2020-02-09T14:38:12Z</time>
      </trkpt>
      <trkpt lat="46.83713" lon="5.874">
        <ele>647.3</ele>
        <time>2020-02-09T14:38:15Z</time>
      </trkpt>
      <trkpt lat="46.83716" lon="5.87406">
        <ele>647.8</ele>
        <time>2020-02-09T14:38:18Z</time>
      </trkpt>
      <trkpt lat="46.8372" lon="5.87409">
        <ele>648.3</ele>
        <time>2020-02-09T14:38:23Z</time>
      </trkpt>
      <trkpt lat="46.83736" lon="5.87419">
        <ele>649.7</ele>
        <time>2020-02-09T14:38:33Z</time>
      </trkpt>
      <trkpt lat="46.83738" lon="5.87425">
        <ele>649.9</ele>
        <time>2020-02-09T14:38:38Z</time>
      </trkpt>
      <trkpt lat="46.8374" lon="5.87432">
        <ele>650.2</ele>
        <time>2020-02-09T14:38:41Z</time>
      </trkpt>
      <trkpt lat="46.83742" lon="5.87439">
        <ele>650.3</ele>
        <time>2020-02-09T14:38:45Z</time>
      </trkpt>
      <trkpt lat="46.83746" lon="5.87443">
        <ele>650.3</ele>
        <time>2020-02-09T14:38:49Z</time>
      </trkpt>
      <trkpt lat="46.83751" lon="5.87446">
        <ele>650.7</ele>
        <time>2020-02-09T14:38:54Z</time>
      </trkpt>
      <trkpt lat="46.83754" lon="5.87452">
        <ele>651.3</ele>
        <time>2020-02-09T14:38:59Z</time>
      </trkpt>
      <trkpt lat="46.83757" lon="5.87459">
        <ele>651.6</ele>
        <time>2020-02-09T14:39:04Z</time>
      </trkpt>
      <trkpt lat="46.8376" lon="5.87464">
        <ele>651.5</ele>
        <time>2020-02-09T14:39:09Z</time>
      </trkpt>
      <trkpt lat="46.83763" lon="5.87469">
        <ele>651.5</ele>
        <time>2020-02-09T14:39:15Z</time>
      </trkpt>
      <trkpt lat="46.83768" lon="5.87474">
        <ele>651.7</ele>
        <time>2020-02-09T14:39:20Z</time>
      </trkpt>
      <trkpt lat="46.83772" lon="5.87479">
        <ele>651.6</ele>
        <time>2020-02-09T14:39:24Z</time>
      </trkpt>
      <trkpt lat="46.83774" lon="5.87485">
        <ele>651.1</ele>
        <time>2020-02-09T14:39:29Z</time>
      </trkpt>
      <trkpt lat="46.83778" lon="5.87491">
        <ele>650.4</ele>
        <time>2020-02-09T14:39:35Z</time>
      </trkpt>
      <trkpt lat="46.8378" lon="5.87497">
        <ele>650.2</ele>
        <time>2020-02-09T14:39:40Z</time>
      </trkpt>
      <trkpt lat="46.83783" lon="5.87503">
        <ele>650.2</ele>
        <time>2020-02-09T14:39:45Z</time>
      </trkpt>
      <trkpt lat="46.83787" lon="5.87509">
        <ele>650.3</ele>
        <time>2020-02-09T14:39:51Z</time>
      </trkpt>
      <trkpt lat="46.83791" lon="5.87512">
        <ele>650.4</ele>
        <time>2020-02-09T14:39:55Z</time>
      </trkpt>
      <trkpt lat="46.83794" lon="5.87516">
        <ele>650.4</ele>
        <time>2020-02-09T14:40:02Z</time>
      </trkpt>
      <trkpt lat="46.83798" lon="5.8752">
        <ele>650.6</ele>
        <time>2020-02-09T14:40:07Z</time>
      </trkpt>
      <trkpt lat="46.83801" lon="5.87525">
        <ele>650.4</ele>
        <time>2020-02-09T14:40:13Z</time>
      </trkpt>
      <trkpt lat="46.83808" lon="5.87531">
        <ele>649.6</ele>
        <time>2020-02-09T14:40:22Z</time>
      </trkpt>
      <trkpt lat="46.8382" lon="5.87537">
        <ele>645.3</ele>
        <time>2020-02-09T14:41:53Z</time>
      </trkpt>
      <trkpt lat="46.83826" lon="5.87539">
        <ele>645.3</ele>
        <time>2020-02-09T14:41:57Z</time>
      </trkpt>
      <trkpt lat="46.8383" lon="5.8754">
        <ele>645.3</ele>
        <time>2020-02-09T14:42:00Z</time>
      </trkpt>
      <trkpt lat="46.83836" lon="5.87543">
        <ele>645.5</ele>
        <time>2020-02-09T14:42:04Z</time>
      </trkpt>
      <trkpt lat="46.8384" lon="5.87545">
        <ele>645.7</ele>
        <time>2020-02-09T14:42:08Z</time>
      </trkpt>
      <trkpt lat="46.83845" lon="5.87548">
        <ele>646</ele>
        <time>2020-02-09T14:42:12Z</time>
      </trkpt>
      <trkpt lat="46.8385" lon="5.87552">
        <ele>646.5</ele>
        <time>2020-02-09T14:42:16Z</time>
      </trkpt>
      <trkpt lat="46.83854" lon="5.87555">
        <ele>646.8</ele>
        <time>2020-02-09T14:42:20Z</time>
      </trkpt>
      <trkpt lat="46.83859" lon="5.87558">
        <ele>647</ele>
        <time>2020-02-09T14:42:25Z</time>
      </trkpt>
      <trkpt lat="46.83863" lon="5.87562">
        <ele>647.2</ele>
        <time>2020-02-09T14:42:30Z</time>
      </trkpt>
      <trkpt lat="46.83868" lon="5.87565">
        <ele>647.1</ele>
        <time>2020-02-09T14:42:35Z</time>
      </trkpt>
      <trkpt lat="46.83872" lon="5.87568">
        <ele>646.7</ele>
        <time>2020-02-09T14:42:39Z</time>
      </trkpt>
      <trkpt lat="46.83876" lon="5.87572">
        <ele>646.1</ele>
        <time>2020-02-09T14:42:44Z</time>
      </trkpt>
      <trkpt lat="46.8388" lon="5.87578">
        <ele>645.5</ele>
        <time>2020-02-09T14:42:50Z</time>
      </trkpt>
      <trkpt lat="46.83884" lon="5.87584">
        <ele>645.3</ele>
        <time>2020-02-09T14:42:54Z</time>
      </trkpt>
      <trkpt lat="46.83887" lon="5.87589">
        <ele>645.1</ele>
        <time>2020-02-09T14:42:58Z</time>
      </trkpt>
      <trkpt lat="46.83892" lon="5.87594">
        <ele>645.2</ele>
        <time>2020-02-09T14:43:02Z</time>
      </trkpt>
      <trkpt lat="46.83897" lon="5.87598">
        <ele>645.3</ele>
        <time>2020-02-09T14:43:07Z</time>
      </trkpt>
      <trkpt lat="46.839" lon="5.87603">
        <ele>645.2</ele>
        <time>2020-02-09T14:43:13Z</time>
      </trkpt>
      <trkpt lat="46.83904" lon="5.87606">
        <ele>644.9</ele>
        <time>2020-02-09T14:43:18Z</time>
      </trkpt>
      <trkpt lat="46.83908" lon="5.87609">
        <ele>644.9</ele>
        <time>2020-02-09T14:43:22Z</time>
      </trkpt>
      <trkpt lat="46.83913" lon="5.87613">
        <ele>644.4</ele>
        <time>2020-02-09T14:43:26Z</time>
      </trkpt>
      <trkpt lat="46.83917" lon="5.87617">
        <ele>643.2</ele>
        <time>2020-02-09T14:43:33Z</time>
      </trkpt>
      <trkpt lat="46.83921" lon="5.8762">
        <ele>642.6</ele>
        <time>2020-02-09T14:43:40Z</time>
      </trkpt>
      <trkpt lat="46.83925" lon="5.87624">
        <ele>642.5</ele>
        <time>2020-02-09T14:43:44Z</time>
      </trkpt>
      <trkpt lat="46.83931" lon="5.87625">
        <ele>642.6</ele>
        <time>2020-02-09T14:43:48Z</time>
      </trkpt>
      <trkpt lat="46.83936" lon="5.87626">
        <ele>642.9</ele>
        <time>2020-02-09T14:43:53Z</time>
      </trkpt>
      <trkpt lat="46.8394" lon="5.87628">
        <ele>643.5</ele>
        <time>2020-02-09T14:43:59Z</time>
      </trkpt>
      <trkpt lat="46.83945" lon="5.8763">
        <ele>643.9</ele>
        <time>2020-02-09T14:44:03Z</time>
      </trkpt>
      <trkpt lat="46.8395" lon="5.87632">
        <ele>644.1</ele>
        <time>2020-02-09T14:44:07Z</time>
      </trkpt>
      <trkpt lat="46.83955" lon="5.87634">
        <ele>644.5</ele>
        <time>2020-02-09T14:44:11Z</time>
      </trkpt>
      <trkpt lat="46.83961" lon="5.87638">
        <ele>645.1</ele>
        <time>2020-02-09T14:44:15Z</time>
      </trkpt>
      <trkpt lat="46.83965" lon="5.87641">
        <ele>645.7</ele>
        <time>2020-02-09T14:44:19Z</time>
      </trkpt>
      <trkpt lat="46.83969" lon="5.87643">
        <ele>646</ele>
        <time>2020-02-09T14:44:23Z</time>
      </trkpt>
      <trkpt lat="46.83974" lon="5.87646">
        <ele>646.1</ele>
        <time>2020-02-09T14:44:29Z</time>
      </trkpt>
      <trkpt lat="46.83979" lon="5.87649">
        <ele>646.2</ele>
        <time>2020-02-09T14:44:35Z</time>
      </trkpt>
      <trkpt lat="46.83983" lon="5.87653">
        <ele>646.1</ele>
        <time>2020-02-09T14:44:41Z</time>
      </trkpt>
      <trkpt lat="46.83986" lon="5.87659">
        <ele>646</ele>
        <time>2020-02-09T14:44:47Z</time>
      </trkpt>
      <trkpt lat="46.8399" lon="5.87663">
        <ele>645.9</ele>
        <time>2020-02-09T14:44:53Z</time>
      </trkpt>
      <trkpt lat="46.83993" lon="5.87668">
        <ele>645.7</ele>
        <time>2020-02-09T14:44:59Z</time>
      </trkpt>
      <trkpt lat="46.83996" lon="5.87674">
        <ele>645.3</ele>
        <time>2020-02-09T14:45:05Z</time>
      </trkpt>
      <trkpt lat="46.84" lon="5.87678">
        <ele>644.9</ele>
        <time>2020-02-09T14:45:10Z</time>
      </trkpt>
      <trkpt lat="46.84004" lon="5.87682">
        <ele>644.9</ele>
        <time>2020-02-09T14:45:16Z</time>
      </trkpt>
      <trkpt lat="46.84009" lon="5.87686">
        <ele>645.1</ele>
        <time>2020-02-09T14:45:20Z</time>
      </trkpt>
      <trkpt lat="46.84013" lon="5.87689">
        <ele>645.6</ele>
        <time>2020-02-09T14:45:24Z</time>
      </trkpt>
      <trkpt lat="46.84018" lon="5.87691">
        <ele>646.2</ele>
        <time>2020-02-09T14:45:28Z</time>
      </trkpt>
      <trkpt lat="46.84022" lon="5.87695">
        <ele>646.9</ele>
        <time>2020-02-09T14:45:33Z</time>
      </trkpt>
      <trkpt lat="46.84026" lon="5.87699">
        <ele>647.4</ele>
        <time>2020-02-09T14:45:37Z</time>
      </trkpt>
      <trkpt lat="46.8403" lon="5.87702">
        <ele>647.8</ele>
        <time>2020-02-09T14:45:41Z</time>
      </trkpt>
      <trkpt lat="46.84033" lon="5.87707">
        <ele>648.3</ele>
        <time>2020-02-09T14:45:45Z</time>
      </trkpt>
      <trkpt lat="46.84037" lon="5.87711">
        <ele>648.8</ele>
        <time>2020-02-09T14:45:49Z</time>
      </trkpt>
      <trkpt lat="46.84041" lon="5.87714">
        <ele>649.3</ele>
        <time>2020-02-09T14:45:54Z</time>
      </trkpt>
      <trkpt lat="46.84045" lon="5.87718">
        <ele>649.8</ele>
        <time>2020-02-09T14:45:59Z</time>
      </trkpt>
      <trkpt lat="46.84049" lon="5.87722">
        <ele>650</ele>
        <time>2020-02-09T14:46:03Z</time>
      </trkpt>
      <trkpt lat="46.84052" lon="5.87726">
        <ele>650.1</ele>
        <time>2020-02-09T14:46:07Z</time>
      </trkpt>
      <trkpt lat="46.84063" lon="5.87739">
        <ele>650.9</ele>
        <time>2020-02-09T14:46:18Z</time>
      </trkpt>
      <trkpt lat="46.84068" lon="5.87743">
        <ele>651</ele>
        <time>2020-02-09T14:46:22Z</time>
      </trkpt>
      <trkpt lat="46.84071" lon="5.87747">
        <ele>651.3</ele>
        <time>2020-02-09T14:46:26Z</time>
      </trkpt>
      <trkpt lat="46.84075" lon="5.87752">
        <ele>651.5</ele>
        <time>2020-02-09T14:46:30Z</time>
      </trkpt>
      <trkpt lat="46.84078" lon="5.87757">
        <ele>651.8</ele>
        <time>2020-02-09T14:46:34Z</time>
      </trkpt>
      <trkpt lat="46.84082" lon="5.87761">
        <ele>652</ele>
        <time>2020-02-09T14:46:38Z</time>
      </trkpt>
      <trkpt lat="46.84086" lon="5.87766">
        <ele>652.1</ele>
        <time>2020-02-09T14:46:43Z</time>
      </trkpt>
      <trkpt lat="46.8409" lon="5.87771">
        <ele>651.9</ele>
        <time>2020-02-09T14:46:48Z</time>
      </trkpt>
      <trkpt lat="46.84094" lon="5.87776">
        <ele>652.1</ele>
        <time>2020-02-09T14:46:53Z</time>
      </trkpt>
      <trkpt lat="46.84098" lon="5.8778">
        <ele>652</ele>
        <time>2020-02-09T14:46:58Z</time>
      </trkpt>
      <trkpt lat="46.84102" lon="5.87784">
        <ele>652</ele>
        <time>2020-02-09T14:47:03Z</time>
      </trkpt>
      <trkpt lat="46.84106" lon="5.87787">
        <ele>651.8</ele>
        <time>2020-02-09T14:47:07Z</time>
      </trkpt>
      <trkpt lat="46.8411" lon="5.87791">
        <ele>651.6</ele>
        <time>2020-02-09T14:47:12Z</time>
      </trkpt>
      <trkpt lat="46.84114" lon="5.87794">
        <ele>651.7</ele>
        <time>2020-02-09T14:47:17Z</time>
      </trkpt>
      <trkpt lat="46.84119" lon="5.87796">
        <ele>651.8</ele>
        <time>2020-02-09T14:47:22Z</time>
      </trkpt>
      <trkpt lat="46.84124" lon="5.87798">
        <ele>651.8</ele>
        <time>2020-02-09T14:47:27Z</time>
      </trkpt>
      <trkpt lat="46.84129" lon="5.87801">
        <ele>652</ele>
        <time>2020-02-09T14:47:32Z</time>
      </trkpt>
      <trkpt lat="46.84133" lon="5.87805">
        <ele>652.2</ele>
        <time>2020-02-09T14:47:37Z</time>
      </trkpt>
      <trkpt lat="46.84137" lon="5.87808">
        <ele>652.4</ele>
        <time>2020-02-09T14:47:41Z</time>
      </trkpt>
      <trkpt lat="46.84141" lon="5.87812">
        <ele>652.6</ele>
        <time>2020-02-09T14:47:45Z</time>
      </trkpt>
      <trkpt lat="46.84146" lon="5.87817">
        <ele>652.9</ele>
        <time>2020-02-09T14:47:49Z</time>
      </trkpt>
      <trkpt lat="46.8415" lon="5.8782">
        <ele>653.2</ele>
        <time>2020-02-09T14:47:52Z</time>
      </trkpt>
      <trkpt lat="46.84155" lon="5.87822">
        <ele>653.9</ele>
        <time>2020-02-09T14:47:58Z</time>
      </trkpt>
      <trkpt lat="46.84159" lon="5.87826">
        <ele>654.6</ele>
        <time>2020-02-09T14:48:05Z</time>
      </trkpt>
      <trkpt lat="46.84164" lon="5.87828">
        <ele>655.3</ele>
        <time>2020-02-09T14:48:10Z</time>
      </trkpt>
      <trkpt lat="46.84169" lon="5.87829">
        <ele>655.9</ele>
        <time>2020-02-09T14:48:15Z</time>
      </trkpt>
      <trkpt lat="46.84175" lon="5.8783">
        <ele>656.3</ele>
        <time>2020-02-09T14:48:19Z</time>
      </trkpt>
      <trkpt lat="46.8418" lon="5.8783">
        <ele>656.5</ele>
        <time>2020-02-09T14:48:25Z</time>
      </trkpt>
      <trkpt lat="46.84185" lon="5.8783">
        <ele>656.6</ele>
        <time>2020-02-09T14:48:30Z</time>
      </trkpt>
      <trkpt lat="46.8419" lon="5.87831">
        <ele>656.5</ele>
        <time>2020-02-09T14:48:35Z</time>
      </trkpt>
      <trkpt lat="46.84195" lon="5.87832">
        <ele>656.5</ele>
        <time>2020-02-09T14:48:40Z</time>
      </trkpt>
      <trkpt lat="46.84199" lon="5.87833">
        <ele>656.7</ele>
        <time>2020-02-09T14:48:48Z</time>
      </trkpt>
      <trkpt lat="46.84204" lon="5.87835">
        <ele>657.4</ele>
        <time>2020-02-09T14:48:56Z</time>
      </trkpt>
      <trkpt lat="46.84209" lon="5.87835">
        <ele>657.7</ele>
        <time>2020-02-09T14:49:02Z</time>
      </trkpt>
      <trkpt lat="46.84214" lon="5.87834">
        <ele>657.5</ele>
        <time>2020-02-09T14:49:09Z</time>
      </trkpt>
      <trkpt lat="46.84217" lon="5.8783">
        <ele>658.2</ele>
        <time>2020-02-09T14:50:33Z</time>
      </trkpt>
      <trkpt lat="46.84221" lon="5.87826">
        <ele>658.4</ele>
        <time>2020-02-09T14:50:36Z</time>
      </trkpt>
      <trkpt lat="46.84225" lon="5.87818">
        <ele>658.6</ele>
        <time>2020-02-09T14:50:40Z</time>
      </trkpt>
      <trkpt lat="46.84228" lon="5.87813">
        <ele>658.4</ele>
        <time>2020-02-09T14:50:47Z</time>
      </trkpt>
      <trkpt lat="46.84231" lon="5.87807">
        <ele>657.9</ele>
        <time>2020-02-09T14:50:56Z</time>
      </trkpt>
      <trkpt lat="46.84235" lon="5.87802">
        <ele>658</ele>
        <time>2020-02-09T14:50:58Z</time>
      </trkpt>
      <trkpt lat="46.84238" lon="5.87797">
        <ele>658.3</ele>
        <time>2020-02-09T14:51:03Z</time>
      </trkpt>
      <trkpt lat="46.84239" lon="5.87775">
        <ele>659.6</ele>
        <time>2020-02-09T14:51:26Z</time>
      </trkpt>
      <trkpt lat="46.84243" lon="5.87765">
        <ele>661.6</ele>
        <time>2020-02-09T14:51:42Z</time>
      </trkpt>
      <trkpt lat="46.84242" lon="5.87758">
        <ele>661.7</ele>
        <time>2020-02-09T14:51:51Z</time>
      </trkpt>
      <trkpt lat="46.84227" lon="5.87736">
        <ele>665.9</ele>
        <time>2020-02-09T14:52:27Z</time>
      </trkpt>
      <trkpt lat="46.84219" lon="5.87722">
        <ele>667</ele>
        <time>2020-02-09T14:52:44Z</time>
      </trkpt>
      <trkpt lat="46.84217" lon="5.87716">
        <ele>667.3</ele>
        <time>2020-02-09T14:52:56Z</time>
      </trkpt>
      <trkpt lat="46.84215" lon="5.87708">
        <ele>667</ele>
        <time>2020-02-09T14:53:00Z</time>
      </trkpt>
      <trkpt lat="46.84214" lon="5.87702">
        <ele>666.2</ele>
        <time>2020-02-09T14:53:08Z</time>
      </trkpt>
      <trkpt lat="46.84211" lon="5.87695">
        <ele>666</ele>
        <time>2020-02-09T14:53:11Z</time>
      </trkpt>
      <trkpt lat="46.8421" lon="5.87688">
        <ele>665.3</ele>
        <time>2020-02-09T14:53:19Z</time>
      </trkpt>
      <trkpt lat="46.84209" lon="5.87681">
        <ele>664.7</ele>
        <time>2020-02-09T14:53:23Z</time>
      </trkpt>
      <trkpt lat="46.84206" lon="5.87669">
        <ele>662.8</ele>
        <time>2020-02-09T14:53:39Z</time>
      </trkpt>
      <trkpt lat="46.84202" lon="5.8766">
        <ele>662.6</ele>
        <time>2020-02-09T14:53:50Z</time>
      </trkpt>
      <trkpt lat="46.84199" lon="5.87653">
        <ele>662.3</ele>
        <time>2020-02-09T14:53:56Z</time>
      </trkpt>
      <trkpt lat="46.84197" lon="5.87647">
        <ele>662.2</ele>
        <time>2020-02-09T14:53:58Z</time>
      </trkpt>
      <trkpt lat="46.8419" lon="5.8762">
        <ele>662.6</ele>
        <time>2020-02-09T14:54:13Z</time>
      </trkpt>
      <trkpt lat="46.8417" lon="5.87588">
        <ele>663.9</ele>
        <time>2020-02-09T14:54:46Z</time>
      </trkpt>
      <trkpt lat="46.84168" lon="5.87582">
        <ele>663.9</ele>
        <time>2020-02-09T14:54:50Z</time>
      </trkpt>
      <trkpt lat="46.84168" lon="5.87574">
        <ele>664.1</ele>
        <time>2020-02-09T14:54:55Z</time>
      </trkpt>
      <trkpt lat="46.84166" lon="5.87567">
        <ele>664.2</ele>
        <time>2020-02-09T14:54:57Z</time>
      </trkpt>
      <trkpt lat="46.84165" lon="5.87559">
        <ele>664.4</ele>
        <time>2020-02-09T14:55:01Z</time>
      </trkpt>
      <trkpt lat="46.84163" lon="5.87552">
        <ele>664.4</ele>
        <time>2020-02-09T14:55:05Z</time>
      </trkpt>
      <trkpt lat="46.84158" lon="5.87547">
        <ele>664.3</ele>
        <time>2020-02-09T14:55:08Z</time>
      </trkpt>
      <trkpt lat="46.84153" lon="5.87534">
        <ele>664.4</ele>
        <time>2020-02-09T14:55:29Z</time>
      </trkpt>
      <trkpt lat="46.84156" lon="5.8752">
        <ele>666.3</ele>
        <time>2020-02-09T14:55:48Z</time>
      </trkpt>
      <trkpt lat="46.84158" lon="5.87514">
        <ele>666.7</ele>
        <time>2020-02-09T14:55:51Z</time>
      </trkpt>
      <trkpt lat="46.84159" lon="5.87507">
        <ele>667.1</ele>
        <time>2020-02-09T14:55:54Z</time>
      </trkpt>
      <trkpt lat="46.84159" lon="5.87497">
        <ele>667.3</ele>
        <time>2020-02-09T14:55:57Z</time>
      </trkpt>
      <trkpt lat="46.84159" lon="5.87489">
        <ele>667.4</ele>
        <time>2020-02-09T14:56:00Z</time>
      </trkpt>
      <trkpt lat="46.8416" lon="5.87482">
        <ele>667.6</ele>
        <time>2020-02-09T14:56:05Z</time>
      </trkpt>
      <trkpt lat="46.84165" lon="5.87461">
        <ele>667.6</ele>
        <time>2020-02-09T14:56:24Z</time>
      </trkpt>
      <trkpt lat="46.84169" lon="5.87458">
        <ele>668</ele>
        <time>2020-02-09T14:56:29Z</time>
      </trkpt>
      <trkpt lat="46.84173" lon="5.87454">
        <ele>668.5</ele>
        <time>2020-02-09T14:56:32Z</time>
      </trkpt>
      <trkpt lat="46.84177" lon="5.8745">
        <ele>669.6</ele>
        <time>2020-02-09T14:56:38Z</time>
      </trkpt>
      <trkpt lat="46.84183" lon="5.8744">
        <ele>671.1</ele>
        <time>2020-02-09T14:56:48Z</time>
      </trkpt>
      <trkpt lat="46.84187" lon="5.87434">
        <ele>671.1</ele>
        <time>2020-02-09T14:56:50Z</time>
      </trkpt>
      <trkpt lat="46.8419" lon="5.87429">
        <ele>671.3</ele>
        <time>2020-02-09T14:56:54Z</time>
      </trkpt>
      <trkpt lat="46.84192" lon="5.87423">
        <ele>671.4</ele>
        <time>2020-02-09T14:57:00Z</time>
      </trkpt>
      <trkpt lat="46.84192" lon="5.87416">
        <ele>671.4</ele>
        <time>2020-02-09T14:57:03Z</time>
      </trkpt>
      <trkpt lat="46.84194" lon="5.87403">
        <ele>670.6</ele>
        <time>2020-02-09T14:57:12Z</time>
      </trkpt>
      <trkpt lat="46.84196" lon="5.87396">
        <ele>670.4</ele>
        <time>2020-02-09T14:57:16Z</time>
      </trkpt>
      <trkpt lat="46.84199" lon="5.87388">
        <ele>670.1</ele>
        <time>2020-02-09T14:57:24Z</time>
      </trkpt>
      <trkpt lat="46.842" lon="5.87381">
        <ele>670.4</ele>
        <time>2020-02-09T14:57:31Z</time>
      </trkpt>
      <trkpt lat="46.84198" lon="5.87373">
        <ele>670.6</ele>
        <time>2020-02-09T14:57:33Z</time>
      </trkpt>
      <trkpt lat="46.84196" lon="5.87367">
        <ele>671.2</ele>
        <time>2020-02-09T14:57:37Z</time>
      </trkpt>
      <trkpt lat="46.84192" lon="5.87363">
        <ele>672.3</ele>
        <time>2020-02-09T14:57:45Z</time>
      </trkpt>
      <trkpt lat="46.84171" lon="5.87363">
        <ele>674</ele>
        <time>2020-02-09T14:58:26Z</time>
      </trkpt>
      <trkpt lat="46.84161" lon="5.87364">
        <ele>675.3</ele>
        <time>2020-02-09T14:58:34Z</time>
      </trkpt>
      <trkpt lat="46.84156" lon="5.87365">
        <ele>675.5</ele>
        <time>2020-02-09T14:58:36Z</time>
      </trkpt>
      <trkpt lat="46.8415" lon="5.87367">
        <ele>675.9</ele>
        <time>2020-02-09T14:58:39Z</time>
      </trkpt>
      <trkpt lat="46.84145" lon="5.87367">
        <ele>676.3</ele>
        <time>2020-02-09T14:58:42Z</time>
      </trkpt>
      <trkpt lat="46.84138" lon="5.87365">
        <ele>676.8</ele>
        <time>2020-02-09T14:58:45Z</time>
      </trkpt>
      <trkpt lat="46.84128" lon="5.87364">
        <ele>678.2</ele>
        <time>2020-02-09T14:58:54Z</time>
      </trkpt>
      <trkpt lat="46.84123" lon="5.87364">
        <ele>679.3</ele>
        <time>2020-02-09T14:59:01Z</time>
      </trkpt>
      <trkpt lat="46.84118" lon="5.87364">
        <ele>681.2</ele>
        <time>2020-02-09T14:59:10Z</time>
      </trkpt>
      <trkpt lat="46.84114" lon="5.87365">
        <ele>683</ele>
        <time>2020-02-09T14:59:18Z</time>
      </trkpt>
      <trkpt lat="46.84108" lon="5.87364">
        <ele>683.7</ele>
        <time>2020-02-09T14:59:21Z</time>
      </trkpt>
      <trkpt lat="46.84103" lon="5.87365">
        <ele>684.4</ele>
        <time>2020-02-09T14:59:24Z</time>
      </trkpt>
      <trkpt lat="46.84093" lon="5.87363">
        <ele>687.1</ele>
        <time>2020-02-09T14:59:40Z</time>
      </trkpt>
      <trkpt lat="46.84087" lon="5.87362">
        <ele>687.5</ele>
        <time>2020-02-09T14:59:45Z</time>
      </trkpt>
      <trkpt lat="46.84083" lon="5.87363">
        <ele>687.9</ele>
        <time>2020-02-09T14:59:48Z</time>
      </trkpt>
      <trkpt lat="46.84077" lon="5.87364">
        <ele>688.2</ele>
        <time>2020-02-09T14:59:51Z</time>
      </trkpt>
      <trkpt lat="46.84072" lon="5.87365">
        <ele>688.5</ele>
        <time>2020-02-09T14:59:53Z</time>
      </trkpt>
      <trkpt lat="46.84067" lon="5.87365">
        <ele>689</ele>
        <time>2020-02-09T14:59:56Z</time>
      </trkpt>
      <trkpt lat="46.84062" lon="5.87366">
        <ele>689.5</ele>
        <time>2020-02-09T15:00:00Z</time>
      </trkpt>
      <trkpt lat="46.84056" lon="5.87367">
        <ele>689.8</ele>
        <time>2020-02-09T15:00:04Z</time>
      </trkpt>
      <trkpt lat="46.84052" lon="5.8737">
        <ele>689.9</ele>
        <time>2020-02-09T15:00:08Z</time>
      </trkpt>
      <trkpt lat="46.84048" lon="5.87374">
        <ele>690</ele>
        <time>2020-02-09T15:00:12Z</time>
      </trkpt>
      <trkpt lat="46.84043" lon="5.87377">
        <ele>690.2</ele>
        <time>2020-02-09T15:00:17Z</time>
      </trkpt>
      <trkpt lat="46.8404" lon="5.87382">
        <ele>690.5</ele>
        <time>2020-02-09T15:00:20Z</time>
      </trkpt>
      <trkpt lat="46.84035" lon="5.87386">
        <ele>690.9</ele>
        <time>2020-02-09T15:00:23Z</time>
      </trkpt>
      <trkpt lat="46.8403" lon="5.87388">
        <ele>691.5</ele>
        <time>2020-02-09T15:00:27Z</time>
      </trkpt>
      <trkpt lat="46.84025" lon="5.87391">
        <ele>692</ele>
        <time>2020-02-09T15:00:31Z</time>
      </trkpt>
      <trkpt lat="46.8402" lon="5.87393">
        <ele>692.6</ele>
        <time>2020-02-09T15:00:36Z</time>
      </trkpt>
      <trkpt lat="46.84016" lon="5.87396">
        <ele>694</ele>
        <time>2020-02-09T15:00:46Z</time>
      </trkpt>
      <trkpt lat="46.84011" lon="5.87398">
        <ele>695.2</ele>
        <time>2020-02-09T15:00:53Z</time>
      </trkpt>
      <trkpt lat="46.84007" lon="5.874">
        <ele>695.7</ele>
        <time>2020-02-09T15:00:58Z</time>
      </trkpt>
      <trkpt lat="46.84002" lon="5.87403">
        <ele>695.9</ele>
        <time>2020-02-09T15:01:02Z</time>
      </trkpt>
      <trkpt lat="46.83996" lon="5.87405">
        <ele>696.1</ele>
        <time>2020-02-09T15:01:07Z</time>
      </trkpt>
      <trkpt lat="46.83992" lon="5.87405">
        <ele>696.4</ele>
        <time>2020-02-09T15:01:14Z</time>
      </trkpt>
      <trkpt lat="46.83987" lon="5.87407">
        <ele>696.7</ele>
        <time>2020-02-09T15:01:20Z</time>
      </trkpt>
      <trkpt lat="46.83982" lon="5.87408">
        <ele>697.1</ele>
        <time>2020-02-09T15:01:26Z</time>
      </trkpt>
      <trkpt lat="46.83977" lon="5.87409">
        <ele>697.7</ele>
        <time>2020-02-09T15:01:33Z</time>
      </trkpt>
      <trkpt lat="46.83972" lon="5.87408">
        <ele>698.2</ele>
        <time>2020-02-09T15:01:38Z</time>
      </trkpt>
      <trkpt lat="46.83967" lon="5.87407">
        <ele>698.5</ele>
        <time>2020-02-09T15:01:42Z</time>
      </trkpt>
      <trkpt lat="46.83961" lon="5.87405">
        <ele>698.6</ele>
        <time>2020-02-09T15:01:45Z</time>
      </trkpt>
      <trkpt lat="46.83957" lon="5.87403">
        <ele>698.6</ele>
        <time>2020-02-09T15:01:48Z</time>
      </trkpt>
      <trkpt lat="46.83953" lon="5.87399">
        <ele>698.5</ele>
        <time>2020-02-09T15:01:52Z</time>
      </trkpt>
      <trkpt lat="46.8395" lon="5.87395">
        <ele>698.3</ele>
        <time>2020-02-09T15:01:56Z</time>
      </trkpt>
      <trkpt lat="46.83946" lon="5.87388">
        <ele>697.9</ele>
        <time>2020-02-09T15:02:00Z</time>
      </trkpt>
      <trkpt lat="46.83943" lon="5.87383">
        <ele>697.7</ele>
        <time>2020-02-09T15:02:05Z</time>
      </trkpt>
      <trkpt lat="46.83939" lon="5.87379">
        <ele>697.6</ele>
        <time>2020-02-09T15:02:10Z</time>
      </trkpt>
      <trkpt lat="46.83934" lon="5.87376">
        <ele>697.2</ele>
        <time>2020-02-09T15:02:16Z</time>
      </trkpt>
      <trkpt lat="46.83928" lon="5.87374">
        <ele>697.2</ele>
        <time>2020-02-09T15:02:22Z</time>
      </trkpt>
      <trkpt lat="46.83924" lon="5.8737">
        <ele>696.8</ele>
        <time>2020-02-09T15:02:29Z</time>
      </trkpt>
      <trkpt lat="46.8392" lon="5.87366">
        <ele>695.9</ele>
        <time>2020-02-09T15:02:35Z</time>
      </trkpt>
      <trkpt lat="46.83915" lon="5.87364">
        <ele>695.2</ele>
        <time>2020-02-09T15:02:39Z</time>
      </trkpt>
      <trkpt lat="46.83911" lon="5.8736">
        <ele>694.7</ele>
        <time>2020-02-09T15:02:42Z</time>
      </trkpt>
      <trkpt lat="46.83906" lon="5.87357">
        <ele>694.2</ele>
        <time>2020-02-09T15:02:48Z</time>
      </trkpt>
      <trkpt lat="46.83902" lon="5.87354">
        <ele>694.2</ele>
        <time>2020-02-09T15:02:53Z</time>
      </trkpt>
      <trkpt lat="46.83898" lon="5.8735">
        <ele>694.4</ele>
        <time>2020-02-09T15:03:07Z</time>
      </trkpt>
      <trkpt lat="46.83894" lon="5.87345">
        <ele>694.6</ele>
        <time>2020-02-09T15:03:17Z</time>
      </trkpt>
      <trkpt lat="46.8389" lon="5.8734">
        <ele>695</ele>
        <time>2020-02-09T15:03:23Z</time>
      </trkpt>
      <trkpt lat="46.83886" lon="5.87337">
        <ele>695.8</ele>
        <time>2020-02-09T15:03:28Z</time>
      </trkpt>
      <trkpt lat="46.83879" lon="5.87335">
        <ele>697.2</ele>
        <time>2020-02-09T15:03:35Z</time>
      </trkpt>
      <trkpt lat="46.83874" lon="5.87333">
        <ele>698.2</ele>
        <time>2020-02-09T15:03:39Z</time>
      </trkpt>
      <trkpt lat="46.83871" lon="5.87328">
        <ele>699</ele>
        <time>2020-02-09T15:03:42Z</time>
      </trkpt>
      <trkpt lat="46.83867" lon="5.87323">
        <ele>700.3</ele>
        <time>2020-02-09T15:03:47Z</time>
      </trkpt>
      <trkpt lat="46.83864" lon="5.87319">
        <ele>701</ele>
        <time>2020-02-09T15:03:50Z</time>
      </trkpt>
      <trkpt lat="46.83859" lon="5.87314">
        <ele>701.7</ele>
        <time>2020-02-09T15:03:53Z</time>
      </trkpt>
      <trkpt lat="46.83853" lon="5.87308">
        <ele>702.3</ele>
        <time>2020-02-09T15:03:56Z</time>
      </trkpt>
      <trkpt lat="46.83849" lon="5.87303">
        <ele>702.8</ele>
        <time>2020-02-09T15:03:59Z</time>
      </trkpt>
      <trkpt lat="46.83845" lon="5.87299">
        <ele>703.4</ele>
        <time>2020-02-09T15:04:02Z</time>
      </trkpt>
      <trkpt lat="46.8384" lon="5.87294">
        <ele>704.1</ele>
        <time>2020-02-09T15:04:06Z</time>
      </trkpt>
      <trkpt lat="46.83836" lon="5.87289">
        <ele>704.6</ele>
        <time>2020-02-09T15:04:11Z</time>
      </trkpt>
      <trkpt lat="46.8382" lon="5.87276">
        <ele>704.4</ele>
        <time>2020-02-09T15:04:20Z</time>
      </trkpt>
      <trkpt lat="46.83816" lon="5.87272">
        <ele>704.1</ele>
        <time>2020-02-09T15:04:26Z</time>
      </trkpt>
      <trkpt lat="46.83807" lon="5.87263">
        <ele>704.9</ele>
        <time>2020-02-09T15:04:44Z</time>
      </trkpt>
      <trkpt lat="46.83803" lon="5.87257">
        <ele>705.5</ele>
        <time>2020-02-09T15:04:48Z</time>
      </trkpt>
      <trkpt lat="46.83799" lon="5.8725">
        <ele>706</ele>
        <time>2020-02-09T15:04:52Z</time>
      </trkpt>
      <trkpt lat="46.83797" lon="5.87245">
        <ele>706.2</ele>
        <time>2020-02-09T15:04:55Z</time>
      </trkpt>
      <trkpt lat="46.83794" lon="5.87239">
        <ele>706.1</ele>
        <time>2020-02-09T15:04:58Z</time>
      </trkpt>
      <trkpt lat="46.8378" lon="5.87215">
        <ele>701.4</ele>
        <time>2020-02-09T15:05:18Z</time>
      </trkpt>
      <trkpt lat="46.83776" lon="5.87209">
        <ele>700.9</ele>
        <time>2020-02-09T15:05:22Z</time>
      </trkpt>
      <trkpt lat="46.83773" lon="5.87205">
        <ele>700.2</ele>
        <time>2020-02-09T15:05:29Z</time>
      </trkpt>
      <trkpt lat="46.8377" lon="5.872">
        <ele>699.8</ele>
        <time>2020-02-09T15:05:35Z</time>
      </trkpt>
      <trkpt lat="46.83765" lon="5.87194">
        <ele>699.7</ele>
        <time>2020-02-09T15:05:37Z</time>
      </trkpt>
      <trkpt lat="46.83762" lon="5.87188">
        <ele>699.7</ele>
        <time>2020-02-09T15:05:39Z</time>
      </trkpt>
      <trkpt lat="46.83758" lon="5.87183">
        <ele>699.8</ele>
        <time>2020-02-09T15:05:42Z</time>
      </trkpt>
      <trkpt lat="46.83753" lon="5.87177">
        <ele>700</ele>
        <time>2020-02-09T15:05:45Z</time>
      </trkpt>
      <trkpt lat="46.83748" lon="5.87173">
        <ele>700.3</ele>
        <time>2020-02-09T15:05:49Z</time>
      </trkpt>
      <trkpt lat="46.83735" lon="5.87163">
        <ele>699.4</ele>
        <time>2020-02-09T15:06:02Z</time>
      </trkpt>
      <trkpt lat="46.83731" lon="5.8716">
        <ele>699.3</ele>
        <time>2020-02-09T15:06:08Z</time>
      </trkpt>
      <trkpt lat="46.83726" lon="5.87156">
        <ele>699.2</ele>
        <time>2020-02-09T15:06:15Z</time>
      </trkpt>
      <trkpt lat="46.83722" lon="5.87153">
        <ele>699.2</ele>
        <time>2020-02-09T15:06:19Z</time>
      </trkpt>
      <trkpt lat="46.83718" lon="5.87149">
        <ele>699.3</ele>
        <time>2020-02-09T15:06:23Z</time>
      </trkpt>
      <trkpt lat="46.83714" lon="5.87144">
        <ele>699.4</ele>
        <time>2020-02-09T15:06:27Z</time>
      </trkpt>
      <trkpt lat="46.83709" lon="5.87138">
        <ele>699.5</ele>
        <time>2020-02-09T15:06:31Z</time>
      </trkpt>
      <trkpt lat="46.83696" lon="5.87123">
        <ele>699.8</ele>
        <time>2020-02-09T15:06:40Z</time>
      </trkpt>
      <trkpt lat="46.83694" lon="5.87117">
        <ele>699.9</ele>
        <time>2020-02-09T15:06:42Z</time>
      </trkpt>
      <trkpt lat="46.83689" lon="5.87106">
        <ele>699.1</ele>
        <time>2020-02-09T15:06:56Z</time>
      </trkpt>
      <trkpt lat="46.83685" lon="5.871">
        <ele>698.1</ele>
        <time>2020-02-09T15:07:01Z</time>
      </trkpt>
      <trkpt lat="46.8368" lon="5.87096">
        <ele>697.5</ele>
        <time>2020-02-09T15:07:05Z</time>
      </trkpt>
      <trkpt lat="46.83677" lon="5.87092">
        <ele>696.9</ele>
        <time>2020-02-09T15:07:09Z</time>
      </trkpt>
      <trkpt lat="46.83672" lon="5.87087">
        <ele>695.9</ele>
        <time>2020-02-09T15:07:15Z</time>
      </trkpt>
      <trkpt lat="46.83669" lon="5.87084">
        <ele>695.2</ele>
        <time>2020-02-09T15:07:19Z</time>
      </trkpt>
      <trkpt lat="46.83664" lon="5.8708">
        <ele>694.6</ele>
        <time>2020-02-09T15:07:23Z</time>
      </trkpt>
      <trkpt lat="46.83658" lon="5.87076">
        <ele>694.1</ele>
        <time>2020-02-09T15:07:28Z</time>
      </trkpt>
      <trkpt lat="46.83654" lon="5.87072">
        <ele>694</ele>
        <time>2020-02-09T15:07:32Z</time>
      </trkpt>
      <trkpt lat="46.8365" lon="5.87067">
        <ele>693.9</ele>
        <time>2020-02-09T15:07:36Z</time>
      </trkpt>
      <trkpt lat="46.83647" lon="5.87062">
        <ele>694.1</ele>
        <time>2020-02-09T15:07:39Z</time>
      </trkpt>
      <trkpt lat="46.83643" lon="5.87055">
        <ele>694.5</ele>
        <time>2020-02-09T15:07:43Z</time>
      </trkpt>
      <trkpt lat="46.8364" lon="5.8705">
        <ele>695.2</ele>
        <time>2020-02-09T15:07:49Z</time>
      </trkpt>
      <trkpt lat="46.83635" lon="5.87045">
        <ele>695.6</ele>
        <time>2020-02-09T15:07:54Z</time>
      </trkpt>
      <trkpt lat="46.83631" lon="5.87042">
        <ele>695.6</ele>
        <time>2020-02-09T15:07:58Z</time>
      </trkpt>
      <trkpt lat="46.83627" lon="5.87038">
        <ele>695.4</ele>
        <time>2020-02-09T15:08:03Z</time>
      </trkpt>
      <trkpt lat="46.83623" lon="5.87034">
        <ele>695.2</ele>
        <time>2020-02-09T15:08:09Z</time>
      </trkpt>
      <trkpt lat="46.83618" lon="5.87033">
        <ele>695</ele>
        <time>2020-02-09T15:08:14Z</time>
      </trkpt>
      <trkpt lat="46.83613" lon="5.87031">
        <ele>694.9</ele>
        <time>2020-02-09T15:08:19Z</time>
      </trkpt>
      <trkpt lat="46.83608" lon="5.87029">
        <ele>694.6</ele>
        <time>2020-02-09T15:08:24Z</time>
      </trkpt>
      <trkpt lat="46.83603" lon="5.8703">
        <ele>694.5</ele>
        <time>2020-02-09T15:08:29Z</time>
      </trkpt>
      <trkpt lat="46.83599" lon="5.87032">
        <ele>694.2</ele>
        <time>2020-02-09T15:08:35Z</time>
      </trkpt>
      <trkpt lat="46.83594" lon="5.87034">
        <ele>694.1</ele>
        <time>2020-02-09T15:08:40Z</time>
      </trkpt>
      <trkpt lat="46.8359" lon="5.87037">
        <ele>694.1</ele>
        <time>2020-02-09T15:08:44Z</time>
      </trkpt>
      <trkpt lat="46.83586" lon="5.87041">
        <ele>694.2</ele>
        <time>2020-02-09T15:08:48Z</time>
      </trkpt>
      <trkpt lat="46.83581" lon="5.87044">
        <ele>694.5</ele>
        <time>2020-02-09T15:08:53Z</time>
      </trkpt>
      <trkpt lat="46.83576" lon="5.87046">
        <ele>694.8</ele>
        <time>2020-02-09T15:08:57Z</time>
      </trkpt>
      <trkpt lat="46.83572" lon="5.87048">
        <ele>695</ele>
        <time>2020-02-09T15:09:01Z</time>
      </trkpt>
      <trkpt lat="46.83568" lon="5.87046">
        <ele>694.7</ele>
        <time>2020-02-09T15:09:06Z</time>
      </trkpt>
      <trkpt lat="46.83563" lon="5.8704">
        <ele>694</ele>
        <time>2020-02-09T15:09:10Z</time>
      </trkpt>
      <trkpt lat="46.83559" lon="5.87036">
        <ele>693.2</ele>
        <time>2020-02-09T15:09:13Z</time>
      </trkpt>
      <trkpt lat="46.83554" lon="5.87036">
        <ele>692.2</ele>
        <time>2020-02-09T15:09:17Z</time>
      </trkpt>
      <trkpt lat="46.83549" lon="5.87038">
        <ele>691.6</ele>
        <time>2020-02-09T15:09:20Z</time>
      </trkpt>
      <trkpt lat="46.83544" lon="5.87039">
        <ele>691.2</ele>
        <time>2020-02-09T15:09:23Z</time>
      </trkpt>
      <trkpt lat="46.83539" lon="5.8704">
        <ele>690.7</ele>
        <time>2020-02-09T15:09:27Z</time>
      </trkpt>
      <trkpt lat="46.83534" lon="5.8704">
        <ele>690</ele>
        <time>2020-02-09T15:09:31Z</time>
      </trkpt>
      <trkpt lat="46.83529" lon="5.8704">
        <ele>689.3</ele>
        <time>2020-02-09T15:09:35Z</time>
      </trkpt>
      <trkpt lat="46.83523" lon="5.8704">
        <ele>688.6</ele>
        <time>2020-02-09T15:09:39Z</time>
      </trkpt>
      <trkpt lat="46.83518" lon="5.87037">
        <ele>688</ele>
        <time>2020-02-09T15:09:43Z</time>
      </trkpt>
      <trkpt lat="46.83513" lon="5.87036">
        <ele>687.4</ele>
        <time>2020-02-09T15:09:47Z</time>
      </trkpt>
      <trkpt lat="46.83508" lon="5.87036">
        <ele>686.8</ele>
        <time>2020-02-09T15:09:51Z</time>
      </trkpt>
      <trkpt lat="46.83496" lon="5.87025">
        <ele>684.2</ele>
        <time>2020-02-09T15:10:03Z</time>
      </trkpt>
      <trkpt lat="46.83492" lon="5.8702">
        <ele>683</ele>
        <time>2020-02-09T15:10:08Z</time>
      </trkpt>
      <trkpt lat="46.83488" lon="5.87015">
        <ele>681.7</ele>
        <time>2020-02-09T15:10:13Z</time>
      </trkpt>
      <trkpt lat="46.83484" lon="5.87011">
        <ele>680.5</ele>
        <time>2020-02-09T15:10:17Z</time>
      </trkpt>
      <trkpt lat="46.83479" lon="5.87008">
        <ele>679.3</ele>
        <time>2020-02-09T15:10:22Z</time>
      </trkpt>
      <trkpt lat="46.83474" lon="5.87009">
        <ele>678.5</ele>
        <time>2020-02-09T15:10:26Z</time>
      </trkpt>
      <trkpt lat="46.83469" lon="5.8701">
        <ele>677.7</ele>
        <time>2020-02-09T15:10:31Z</time>
      </trkpt>
      <trkpt lat="46.83466" lon="5.87015">
        <ele>674</ele>
        <time>2020-02-09T15:11:07Z</time>
      </trkpt>
      <trkpt lat="46.83466" lon="5.87023">
        <ele>673.6</ele>
        <time>2020-02-09T15:11:12Z</time>
      </trkpt>
      <trkpt lat="46.83467" lon="5.87029">
        <ele>673</ele>
        <time>2020-02-09T15:11:18Z</time>
      </trkpt>
      <trkpt lat="46.83467" lon="5.87036">
        <ele>672.4</ele>
        <time>2020-02-09T15:11:23Z</time>
      </trkpt>
      <trkpt lat="46.83465" lon="5.87042">
        <ele>671.5</ele>
        <time>2020-02-09T15:11:31Z</time>
      </trkpt>
    </trkseg>
  </trk>
</gpx>